Observation data for Aiken on 12/08/2019      Previous  Date       Current Mesonet Observations  Soil Data  Daily Summary Page  Observations in Plain Language
KAI1 080600Z 21012KT 08/02 A3001 RMK A01 T00770019  RH  067%=      5-min Rain = 0
KAI1 080601Z 21012KT 08/02 A3001 RMK A01 T00770019  RH  067%=      5-min Rain = 0
KAI1 080602Z 21013KT 08/02 A3001 RMK A01 T00770019  RH  067%=      5-min Rain = 0
KAI1 080603Z 21012KT 08/02 A3001 RMK A01 T00770019  RH  067%=      5-min Rain = 0
KAI1 080604Z 22012KT 08/02 A3001 RMK A01 T00780019  RH  067%=      5-min Rain = 0
KAI1 080605Z 22012KT 08/02 A3001 RMK A01 T00780019  RH  066%=      5-min Rain = 0
KAI1 080606Z 21011KT 08/02 A3001 RMK A01 T00780019  RH  066%=      5-min Rain = 0
KAI1 080607Z 22012KT 08/02 A3001 RMK A01 T00770019  RH  067%=      5-min Rain = 0
KAI1 080608Z 22012KT 08/02 A3001 RMK A01 T00760019  RH  067%=      5-min Rain = 0
KAI1 080609Z 22011KT 08/02 A3001 RMK A01 T00760019  RH  067%=      5-min Rain = 0
KAI1 080610Z 22012KT 08/02 A3001 RMK A01 T00760019  RH  067%=      5-min Rain = 0
KAI1 080611Z 22012KT 08/02 A3001 RMK A01 T00750019  RH  067%=      5-min Rain = 0
KAI1 080612Z 22012KT 08/02 A3001 RMK A01 T00750019  RH  068%=      5-min Rain = 0
KAI1 080613Z 22012KT 08/02 A3001 RMK A01 T00750019  RH  068%=      5-min Rain = 0
KAI1 080614Z 22012KT 08/02 A3001 RMK A01 T00750019  RH  068%=      5-min Rain = 0
KAI1 080615Z 22012KT 08/02 A3001 RMK A01 T00750019  RH  068%=      5-min Rain = 0
KAI1 080616Z 22011KT 08/02 A3001 RMK A01 T00750019  RH  068%=      5-min Rain = 0
KAI1 080617Z 22011KT 07/02 A30 RMK A01 T00740018  RH  068%=      5-min Rain = 0
KAI1 080618Z 22011KT 07/02 A30 RMK A01 T00730018  RH  068%=      5-min Rain = 0
KAI1 080619Z 22011KT 07/02 A30 RMK A01 T00730018  RH  068%=      5-min Rain = 0
KAI1 080620Z 22011KT 07/02 A30 RMK A01 T00720018  RH  068%=      5-min Rain = 0
KAI1 080621Z 22011KT 07/02 A30 RMK A01 T00720018  RH  069%=      5-min Rain = 0
KAI1 080622Z 22011KT 07/02 A30 RMK A01 T00710018  RH  069%=      5-min Rain = 0
KAI1 080623Z 21011KT 07/02 A30 RMK A01 T00700018  RH  069%=      5-min Rain = 0
KAI1 080624Z 21012KT 07/02 A30 RMK A01 T00700018  RH  069%=      5-min Rain = 0
KAI1 080625Z 21012KT 07/02 A2999 RMK A01 T00700018  RH  070%=      5-min Rain = 0
KAI1 080626Z 21012KT 07/02 A2999 RMK A01 T00700018  RH  070%=      5-min Rain = 0
KAI1 080627Z 21012KT 07/02 A2999 RMK A01 T00700018  RH  070%=      5-min Rain = 0
KAI1 080628Z 21014KT 07/02 A2999 RMK A01 T00700018  RH  070%=      5-min Rain = 0
KAI1 080629Z 22012KT 07/02 A2999 RMK A01 T00700018  RH  070%=      5-min Rain = 0
KAI1 080630Z 22012KT 07/02 A2999 RMK A01 T00700018  RH  070%=      5-min Rain = 0
KAI1 080631Z 22012KT 07/02 A2999 RMK A01 T00690018  RH  070%=      5-min Rain = 0
KAI1 080632Z 22012KT 07/02 A2999 RMK A01 T00700018  RH  070%=      5-min Rain = 0
KAI1 080633Z 22014KT 07/02 A2999 RMK A01 T00690018  RH  070%=      5-min Rain = 0
KAI1 080634Z 22013KT 07/02 A2999 RMK A01 T00690018  RH  070%=      5-min Rain = 0
KAI1 080635Z 22013KT 07/02 A2999 RMK A01 T00690018  RH  070%=      5-min Rain = 0
KAI1 080636Z 22013KT 07/02 A2999 RMK A01 T00690018  RH  070%=      5-min Rain = 0
KAI1 080637Z 22012KT 07/02 A2998 RMK A01 T00690018  RH  070%=      5-min Rain = 0
KAI1 080638Z 22013KT 07/02 A2998 RMK A01 T00690018  RH  070%=      5-min Rain = 0
KAI1 080639Z 22014KT 07/02 A2998 RMK A01 T00690018  RH  070%=      5-min Rain = 0
KAI1 080640Z 22012KT 07/02 A2998 RMK A01 T00690018  RH  070%=      5-min Rain = 0
KAI1 080641Z 22013KT 07/02 A2998 RMK A01 T00690018  RH  070%=      5-min Rain = 0
KAI1 080642Z 22012KT 07/02 A2998 RMK A01 T00690018  RH  070%=      5-min Rain = 0
KAI1 080643Z 22012KT 07/02 A2998 RMK A01 T00690018  RH  070%=      5-min Rain = 0
KAI1 080644Z 22013KT 07/02 A2998 RMK A01 T00690018  RH  070%=      5-min Rain = 0
KAI1 080645Z 22013KT 07/02 A2998 RMK A01 T00690018  RH  070%=      5-min Rain = 0
KAI1 080646Z 22013KT 07/02 A2998 RMK A01 T00680018  RH  070%=      5-min Rain = 0
KAI1 080647Z 22014KT 07/02 A2998 RMK A01 T00680018  RH  070%=      5-min Rain = 0
KAI1 080648Z 22014KT 07/02 A2998 RMK A01 T00680018  RH  070%=      5-min Rain = 0
KAI1 080649Z 22013KT 07/02 A2998 RMK A01 T00680018  RH  070%=      5-min Rain = 0
KAI1 080650Z 22014KT 07/02 A2998 RMK A01 T00680018  RH  070%=      5-min Rain = 0
KAI1 080651Z 22013KT 07/02 A2998 RMK A01 T00670018  RH  071%=      5-min Rain = 0
KAI1 080652Z 22013KT 07/02 A2998 RMK A01 T00680018  RH  071%=      5-min Rain = 0
KAI1 080653Z 22012KT 07/02 A2998 RMK A01 T00670018  RH  071%=      5-min Rain = 0
KAI1 080654Z 22013KT 07/02 A2998 RMK A01 T00670018  RH  071%=      5-min Rain = 0
KAI1 080655Z 22013KT 07/02 A2998 RMK A01 T00670018  RH  071%=      5-min Rain = 0
KAI1 080656Z 22013KT 07/02 A2998 RMK A01 T00680018  RH  071%=      5-min Rain = 0
KAI1 080657Z 22013KT 07/02 A2997 RMK A01 T00680018  RH  070%=      5-min Rain = 0
KAI1 080658Z 22013KT 07/02 A2997 RMK A01 T00690018  RH  070%=      5-min Rain = 0
KAI1 080659Z 22014KT 07/02 A2997 RMK A01 T00690019  RH  070%=      5-min Rain = 0
KAI1 080700Z 22013KT 07/02 A2997 RMK A01 T00700019  RH  070%=      5-min Rain = 0
KAI1 080701Z 22013KT 07/02 A2997 RMK A01 T00700019  RH  070%=      5-min Rain = 0
KAI1 080702Z 22014KT 07/02 A2997 RMK A01 T00700019  RH  070%=      5-min Rain = 0
KAI1 080703Z 22013KT 07/02 A2997 RMK A01 T00710019  RH  070%=      5-min Rain = 0
KAI1 080704Z 22013KT 07/02 A2997 RMK A01 T00710019  RH  070%=      5-min Rain = 0
KAI1 080705Z 22013KT 07/02 A2997 RMK A01 T00710019  RH  069%=      5-min Rain = 0
KAI1 080706Z 22013KT 07/02 A2997 RMK A01 T00710019  RH  069%=      5-min Rain = 0
KAI1 080707Z 22013KT 07/02 A2997 RMK A01 T00720019  RH  069%=      5-min Rain = 0
KAI1 080708Z 22012KT 07/02 A2997 RMK A01 T00720019  RH  069%=      5-min Rain = 0
KAI1 080709Z 22012KT 07/02 A2997 RMK A01 T00710019  RH  069%=      5-min Rain = 0
KAI1 080710Z 21013G18KT 07/02 A2996 RMK A01 T00710019  RH  069%=      5-min Rain = 0
KAI1 080711Z 22014KT 07/02 A2996 RMK A01 T00720019  RH  069%=      5-min Rain = 0
KAI1 080712Z 22012KT 07/02 A2996 RMK A01 T00730019  RH  069%=      5-min Rain = 0
KAI1 080713Z 22013KT 07/02 A2996 RMK A01 T00730019  RH  069%=      5-min Rain = 0
KAI1 080714Z 22013KT 07/02 A2996 RMK A01 T00730019  RH  068%=      5-min Rain = 0
KAI1 080715Z 22012KT 07/02 A2996 RMK A01 T00740019  RH  068%=      5-min Rain = 0
KAI1 080716Z 22013KT 07/02 A2996 RMK A01 T00740019  RH  068%=      5-min Rain = 0
KAI1 080717Z 22012KT 07/02 A2996 RMK A01 T00730019  RH  069%=      5-min Rain = 0
KAI1 080718Z 22012KT 07/02 A2996 RMK A01 T00720019  RH  069%=      5-min Rain = 0
KAI1 080719Z 22011KT 07/02 A2996 RMK A01 T00720019  RH  069%=      5-min Rain = 0
KAI1 080720Z 22011KT 07/02 A2996 RMK A01 T00720019  RH  069%=      5-min Rain = 0
KAI1 080721Z 22012KT 07/02 A2996 RMK A01 T00720019  RH  069%=      5-min Rain = 0
KAI1 080722Z 22011KT 07/02 A2996 RMK A01 T00720019  RH  069%=      5-min Rain = 0
KAI1 080723Z 22012KT 07/02 A2996 RMK A01 T00720019  RH  069%=      5-min Rain = 0
KAI1 080724Z 22012KT 07/02 A2996 RMK A01 T00720020  RH  069%=      5-min Rain = 0
KAI1 080725Z 22011KT 07/02 A2995 RMK A01 T00720019  RH  069%=      5-min Rain = 0
KAI1 080726Z 21011KT 07/02 A2995 RMK A01 T00720019  RH  069%=      5-min Rain = 0
KAI1 080727Z 21011KT 07/02 A2995 RMK A01 T00710019  RH  069%=      5-min Rain = 0
KAI1 080728Z 22011KT 07/02 A2995 RMK A01 T00710019  RH  069%=      5-min Rain = 0
KAI1 080729Z 22012KT 07/02 A2995 RMK A01 T00710019  RH  069%=      5-min Rain = 0
KAI1 080730Z 22013KT 07/02 A2995 RMK A01 T00710019  RH  070%=      5-min Rain = 0
KAI1 080731Z 22013KT 07/02 A2995 RMK A01 T00710019  RH  070%=      5-min Rain = 0
KAI1 080732Z 22012KT 07/02 A2995 RMK A01 T00700019  RH  070%=      5-min Rain = 0
KAI1 080733Z 22013KT 07/02 A2995 RMK A01 T00700019  RH  070%=      5-min Rain = 0
KAI1 080734Z 21012KT 07/02 A2995 RMK A01 T00700019  RH  070%=      5-min Rain = 0
KAI1 080735Z 21012KT 07/02 A2995 RMK A01 T00700019  RH  070%=      5-min Rain = 0
KAI1 080736Z 21013KT 07/02 A2995 RMK A01 T00690019  RH  070%=      5-min Rain = 0
KAI1 080737Z 21012KT 07/02 A2995 RMK A01 T00690019  RH  070%=      5-min Rain = 0
KAI1 080738Z 22012KT 07/02 A2995 RMK A01 T00690018  RH  070%=      5-min Rain = 0
KAI1 080739Z 22011KT 07/02 A2995 RMK A01 T00690018  RH  070%=      5-min Rain = 0
KAI1 080740Z 21012KT 07/02 A2995 RMK A01 T00690018  RH  070%=      5-min Rain = 0
KAI1 080741Z 21012KT 07/02 A2995 RMK A01 T00690019  RH  070%=      5-min Rain = 0
KAI1 080742Z 21012KT 07/02 A2995 RMK A01 T00690019  RH  070%=      5-min Rain = 0
KAI1 080743Z 22011KT 07/02 A2995 RMK A01 T00690019  RH  070%=      5-min Rain = 0
KAI1 080744Z 22010KT 07/02 A2995 RMK A01 T00680018  RH  070%=      5-min Rain = 0
KAI1 080745Z 22011KT 07/02 A2995 RMK A01 T00680018  RH  071%=      5-min Rain = 0
KAI1 080746Z 22011KT 07/02 A2995 RMK A01 T00680018  RH  071%=      5-min Rain = 0
KAI1 080747Z 22011KT 07/02 A2995 RMK A01 T00670018  RH  071%=      5-min Rain = 0
KAI1 080748Z 22011KT 07/02 A2995 RMK A01 T00670018  RH  071%=      5-min Rain = 0
KAI1 080749Z 22011KT 07/02 A2995 RMK A01 T00660018  RH  071%=      5-min Rain = 0
KAI1 080750Z 21010KT 07/02 A2995 RMK A01 T00660018  RH  071%=      5-min Rain = 0
KAI1 080751Z 22010KT 07/02 A2995 RMK A01 T00660018  RH  071%=      5-min Rain = 0
KAI1 080752Z 22010KT 07/02 A2995 RMK A01 T00660018  RH  071%=      5-min Rain = 0
KAI1 080753Z 22010KT 07/02 A2995 RMK A01 T00660018  RH  071%=      5-min Rain = 0
KAI1 080754Z 22010KT 07/02 A2995 RMK A01 T00660018  RH  071%=      5-min Rain = 0
KAI1 080755Z 22009KT 07/02 A2995 RMK A01 T00660017  RH  071%=      5-min Rain = 0
KAI1 080756Z 23009KT 07/02 A2995 RMK A01 T00650017  RH  071%=      5-min Rain = 0
KAI1 080757Z 23008KT 06/02 A2995 RMK A01 T00640017  RH  072%=      5-min Rain = 0
KAI1 080758Z 23008KT 06/02 A2995 RMK A01 T00630017  RH  072%=      5-min Rain = 0
KAI1 080759Z 23008KT 06/02 A2995 RMK A01 T00620016  RH  073%=      5-min Rain = 0
KAI1 080800Z 23008KT 06/02 A2995 RMK A01 T00610017  RH  073%=      5-min Rain = 0
KAI1 080801Z 23009KT 06/02 A2995 RMK A01 T00610017  RH  073%=      5-min Rain = 0
KAI1 080802Z 23008KT 06/02 A2995 RMK A01 T00610017  RH  073%=      5-min Rain = 0
KAI1 080803Z 23008KT 06/02 A2995 RMK A01 T00600016  RH  073%=      5-min Rain = 0
KAI1 080804Z 23008KT 06/02 A2995 RMK A01 T00600016  RH  074%=      5-min Rain = 0
KAI1 080805Z 23008KT 06/02 A2995 RMK A01 T00590016  RH  074%=      5-min Rain = 0
KAI1 080806Z 23007KT 06/02 A2995 RMK A01 T00590016  RH  074%=      5-min Rain = 0
KAI1 080807Z 23007KT 06/02 A2995 RMK A01 T00590016  RH  074%=      5-min Rain = 0
KAI1 080808Z 23008KT 06/02 A2995 RMK A01 T00580016  RH  074%=      5-min Rain = 0
KAI1 080809Z 23008KT 06/02 A2995 RMK A01 T00570016  RH  075%=      5-min Rain = 0
KAI1 080810Z 23008KT 06/02 A2995 RMK A01 T00570015  RH  075%=      5-min Rain = 0
KAI1 080811Z 23008KT 06/02 A2995 RMK A01 T00560015  RH  075%=      5-min Rain = 0
KAI1 080812Z 23008KT 06/02 A2995 RMK A01 T00550015  RH  075%=      5-min Rain = 0
KAI1 080813Z 23008KT 06/02 A2995 RMK A01 T00550015  RH  075%=      5-min Rain = 0
KAI1 080814Z 23008KT 05/02 A2995 RMK A01 T00540015  RH  076%=      5-min Rain = 0
KAI1 080815Z 23008KT 05/01 A2995 RMK A01 T00530014  RH  076%=      5-min Rain = 0
KAI1 080816Z 23008KT 05/01 A2995 RMK A01 T00520014  RH  076%=      5-min Rain = 0
KAI1 080817Z 23008KT 05/01 A2996 RMK A01 T00510014  RH  077%=      5-min Rain = 0
KAI1 080818Z 23009KT 05/01 A2996 RMK A01 T00500013  RH  077%=      5-min Rain = 0
KAI1 080819Z 23009KT 05/01 A2996 RMK A01 T00500014  RH  077%=      5-min Rain = 0
KAI1 080820Z 23009KT 05/01 A2996 RMK A01 T00490013  RH  078%=      5-min Rain = 0
KAI1 080821Z 23009KT 05/01 A2996 RMK A01 T00480013  RH  078%=      5-min Rain = 0
KAI1 080822Z 23008KT 05/01 A2996 RMK A01 T00470013  RH  078%=      5-min Rain = 0
KAI1 080823Z 23008KT 05/01 A2995 RMK A01 T00470013  RH  079%=      5-min Rain = 0
KAI1 080824Z 23007KT 05/01 A2995 RMK A01 T00470013  RH  079%=      5-min Rain = 0
KAI1 080825Z 23007KT 05/01 A2995 RMK A01 T00460013  RH  079%=      5-min Rain = 0
KAI1 080826Z 23007KT 05/01 A2995 RMK A01 T00460012  RH  079%=      5-min Rain = 0
KAI1 080827Z 23007KT 05/01 A2996 RMK A01 T00460013  RH  079%=      5-min Rain = 0
KAI1 080828Z 23007KT 05/01 A2996 RMK A01 T00450013  RH  079%=      5-min Rain = 0
KAI1 080829Z 23007KT 05/01 A2996 RMK A01 T00450013  RH  079%=      5-min Rain = 0
KAI1 080830Z 24007KT 05/01 A2996 RMK A01 T00450013  RH  080%=      5-min Rain = 0
KAI1 080831Z 23008KT 05/01 A2996 RMK A01 T00450013  RH  080%=      5-min Rain = 0
KAI1 080832Z 24007KT 05/01 A2996 RMK A01 T00450013  RH  080%=      5-min Rain = 0
KAI1 080833Z 24008KT 05/01 A2996 RMK A01 T00450014  RH  080%=      5-min Rain = 0
KAI1 080834Z 24008KT 05/02 A2995 RMK A01 T00470015  RH  080%=      5-min Rain = 0
KAI1 080835Z 23008KT 05/02 A2995 RMK A01 T00480016  RH  080%=      5-min Rain = 0
KAI1 080836Z 23009KT 05/02 A2995 RMK A01 T00500017  RH  079%=      5-min Rain = 0
KAI1 080837Z 24009KT 05/02 A2995 RMK A01 T00520019  RH  079%=      5-min Rain = 0
KAI1 080838Z 24009KT 05/02 A2995 RMK A01 T00540020  RH  079%=      5-min Rain = 0
KAI1 080839Z 24010KT 06/02 A2995 RMK A01 T00580022  RH  078%=      5-min Rain = 0
KAI1 080840Z 24010KT 06/02 A2995 RMK A01 T00610024  RH  077%=      5-min Rain = 0
KAI1 080841Z 24010KT 06/02 A2995 RMK A01 T00640024  RH  076%=      5-min Rain = 0
KAI1 080842Z 24010KT 07/02 A2995 RMK A01 T00650024  RH  075%=      5-min Rain = 0
KAI1 080843Z 24009KT 07/02 A2995 RMK A01 T00660024  RH  075%=      5-min Rain = 0
KAI1 080844Z 24010KT 07/02 A2995 RMK A01 T00670024  RH  074%=      5-min Rain = 0
KAI1 080845Z 24009KT 07/02 A2995 RMK A01 T00680024  RH  074%=      5-min Rain = 0
KAI1 080846Z 24010KT 07/02 A2995 RMK A01 T00680024  RH  073%=      5-min Rain = 0
KAI1 080847Z 24009KT 07/02 A2995 RMK A01 T00690024  RH  073%=      5-min Rain = 0
KAI1 080848Z 24009KT 07/02 A2995 RMK A01 T00690024  RH  073%=      5-min Rain = 0
KAI1 080849Z 25008KT 07/02 A2995 RMK A01 T00690024  RH  073%=      5-min Rain = 0
KAI1 080850Z 25007KT 07/02 A2995 RMK A01 T00690024  RH  073%=      5-min Rain = 0
KAI1 080851Z 25008KT 07/02 A2995 RMK A01 T00690024  RH  073%=      5-min Rain = 0
KAI1 080852Z 25009KT 07/02 A2995 RMK A01 T00690024  RH  073%=      5-min Rain = 0
KAI1 080853Z 25009KT 07/02 A2995 RMK A01 T00690024  RH  073%=      5-min Rain = 0
KAI1 080854Z 24009KT 07/03 A2995 RMK A01 T00690025  RH  073%=      5-min Rain = 0
KAI1 080855Z 24010KT 07/03 A2995 RMK A01 T00690025  RH  073%=      5-min Rain = 0
KAI1 080856Z 24010KT 07/03 A2995 RMK A01 T00700025  RH  073%=      5-min Rain = 0
KAI1 080857Z 24010KT 07/03 A2995 RMK A01 T00710025  RH  073%=      5-min Rain = 0
KAI1 080858Z 24010KT 07/03 A2995 RMK A01 T00700025  RH  073%=      5-min Rain = 0
KAI1 080859Z 24010KT 07/03 A2995 RMK A01 T00710025  RH  073%=      5-min Rain = 0
KAI1 080900Z 24010KT 07/03 A2995 RMK A01 T00710026  RH  073%=      5-min Rain = 0
KAI1 080901Z 24010KT 07/03 A2995 RMK A01 T00700026  RH  073%=      5-min Rain = 0
KAI1 080902Z 23010KT 07/03 A2995 RMK A01 T00710026  RH  073%=      5-min Rain = 0
KAI1 080903Z 23010KT 07/03 A2995 RMK A01 T00710026  RH  073%=      5-min Rain = 0
KAI1 080904Z 24010KT 07/03 A2994 RMK A01 T00700026  RH  073%=      5-min Rain = 0
KAI1 080905Z 23010KT 07/03 A2994 RMK A01 T00700026  RH  073%=      5-min Rain = 0
KAI1 080906Z 23010KT 07/03 A2994 RMK A01 T00710026  RH  073%=      5-min Rain = 0
KAI1 080907Z 23010KT 07/03 A2994 RMK A01 T00710026  RH  073%=      5-min Rain = 0
KAI1 080908Z 23010KT 07/03 A2994 RMK A01 T00710026  RH  073%=      5-min Rain = 0
KAI1 080909Z 23010KT 07/03 A2994 RMK A01 T00720027  RH  073%=      5-min Rain = 0
KAI1 080910Z 24011KT 07/03 A2994 RMK A01 T00730027  RH  073%=      5-min Rain = 0
KAI1 080911Z 24009KT 07/03 A2994 RMK A01 T00730027  RH  072%=      5-min Rain = 0
KAI1 080912Z 24010KT 07/03 A2994 RMK A01 T00740028  RH  072%=      5-min Rain = 0
KAI1 080913Z 24010KT 08/03 A2994 RMK A01 T00760028  RH  072%=      5-min Rain = 0
KAI1 080914Z 24010KT 08/03 A2994 RMK A01 T00770028  RH  071%=      5-min Rain = 0
KAI1 080915Z 24010KT 08/03 A2994 RMK A01 T00780028  RH  071%=      5-min Rain = 0
KAI1 080916Z 24010KT 08/03 A2994 RMK A01 T00780028  RH  071%=      5-min Rain = 0
KAI1 080917Z 24009KT 08/03 A2994 RMK A01 T00780029  RH  071%=      5-min Rain = 0
KAI1 080918Z 24009KT 08/03 A2994 RMK A01 T00790029  RH  071%=      5-min Rain = 0
KAI1 080919Z 24009KT 08/03 A2994 RMK A01 T00790029  RH  071%=      5-min Rain = 0
KAI1 080920Z 24010KT 08/03 A2994 RMK A01 T00790029  RH  070%=      5-min Rain = 0
KAI1 080921Z 24010KT 08/03 A2994 RMK A01 T00800029  RH  070%=      5-min Rain = 0
KAI1 080922Z 24010KT 08/03 A2994 RMK A01 T00800029  RH  070%=      5-min Rain = 0
KAI1 080923Z 24011KT 08/03 A2994 RMK A01 T00800029  RH  070%=      5-min Rain = 0
KAI1 080924Z 24011KT 08/03 A2994 RMK A01 T00810030  RH  070%=      5-min Rain = 0
KAI1 080925Z 24013KT 08/03 A2994 RMK A01 T00810030  RH  070%=      5-min Rain = 0
KAI1 080926Z 25012KT 08/03 A2995 RMK A01 T00830031  RH  070%=      5-min Rain = 0
KAI1 080927Z 24012KT 08/03 A2995 RMK A01 T00830030  RH  069%=      5-min Rain = 0
KAI1 080928Z 24012KT 08/03 A2994 RMK A01 T00840031  RH  069%=      5-min Rain = 0
KAI1 080929Z 25013KT 09/03 A2994 RMK A01 T00850031  RH  069%=      5-min Rain = 0
KAI1 080930Z 25013KT 09/03 A2994 RMK A01 T00870032  RH  068%=      5-min Rain = 0
KAI1 080931Z 24013KT 09/03 A2994 RMK A01 T00870032  RH  068%=      5-min Rain = 0
KAI1 080932Z 25013KT 09/03 A2994 RMK A01 T00880032  RH  068%=      5-min Rain = 0
KAI1 080933Z 25013KT 09/03 A2994 RMK A01 T00890032  RH  067%=      5-min Rain = 0
KAI1 080934Z 25014KT 09/03 A2994 RMK A01 T00890032  RH  067%=      5-min Rain = 0
KAI1 080935Z 25013KT 09/03 A2994 RMK A01 T00900032  RH  067%=      5-min Rain = 0
KAI1 080936Z 25014KT 09/03 A2994 RMK A01 T00900032  RH  067%=      5-min Rain = 0
KAI1 080937Z 25014KT 09/03 A2994 RMK A01 T00910033  RH  067%=      5-min Rain = 0
KAI1 080938Z 25013KT 09/03 A2994 RMK A01 T00910032  RH  067%=      5-min Rain = 0
KAI1 080939Z 25013KT 09/03 A2994 RMK A01 T00920033  RH  066%=      5-min Rain = 0
KAI1 080940Z 25013KT 09/03 A2994 RMK A01 T00920033  RH  066%=      5-min Rain = 0
KAI1 080941Z 25012KT 09/03 A2994 RMK A01 T00920033  RH  066%=      5-min Rain = 0
KAI1 080942Z 25012KT 09/03 A2994 RMK A01 T00920033  RH  067%=      5-min Rain = 0
KAI1 080943Z 25011KT 09/03 A2994 RMK A01 T00920033  RH  067%=      5-min Rain = 0
KAI1 080944Z 25013KT 09/03 A2994 RMK A01 T00920032  RH  066%=      5-min Rain = 0
KAI1 080945Z 25012KT 09/03 A2994 RMK A01 T00920033  RH  066%=      5-min Rain = 0
KAI1 080946Z 25012KT 09/03 A2994 RMK A01 T00930032  RH  066%=      5-min Rain = 0
KAI1 080947Z 25011KT 09/03 A2994 RMK A01 T00930032  RH  066%=      5-min Rain = 0
KAI1 080948Z 25012KT 09/03 A2994 RMK A01 T00930033  RH  066%=      5-min Rain = 0
KAI1 080949Z 26012KT 09/03 A2994 RMK A01 T00940033  RH  066%=      5-min Rain = 0
KAI1 080950Z 26012KT 09/03 A2994 RMK A01 T00940033  RH  065%=      5-min Rain = 0
KAI1 080951Z 26012KT 10/03 A2994 RMK A01 T00950033  RH  065%=      5-min Rain = 0
KAI1 080952Z 26012KT 10/03 A2994 RMK A01 T00950033  RH  065%=      5-min Rain = 0
KAI1 080953Z 25014KT 10/03 A2994 RMK A01 T00950033  RH  065%=      5-min Rain = 0
KAI1 080954Z 25014KT 10/03 A2994 RMK A01 T00960033  RH  065%=      5-min Rain = 0
KAI1 080955Z 25014KT 10/03 A2994 RMK A01 T00960033  RH  065%=      5-min Rain = 0
KAI1 080956Z 25013KT 10/03 A2994 RMK A01 T00960033  RH  065%=      5-min Rain = 0
KAI1 080957Z 25014KT 10/03 A2994 RMK A01 T00960033  RH  065%=      5-min Rain = 0
KAI1 080958Z 25014KT 10/03 A2994 RMK A01 T00960033  RH  065%=      5-min Rain = 0
KAI1 080959Z 25014KT 10/03 A2994 RMK A01 T00970033  RH  065%=      5-min Rain = 0
KAI1 081000Z 25014KT 10/03 A2994 RMK A01 T00970033  RH  064%=      5-min Rain = 0
KAI1 081001Z 24014KT 10/03 A2994 RMK A01 T00970033  RH  064%=      5-min Rain = 0
KAI1 081002Z 24014KT 10/03 A2994 RMK A01 T00970033  RH  064%=      5-min Rain = 0
KAI1 081003Z 24015KT 10/03 A2994 RMK A01 T00970033  RH  064%=      5-min Rain = 0
KAI1 081004Z 24015KT 10/03 A2993 RMK A01 T00970033  RH  064%=      5-min Rain = 0
KAI1 081005Z 24016KT 10/03 A2994 RMK A01 T00970033  RH  064%=      5-min Rain = 0
KAI1 081006Z 24016KT 10/03 A2994 RMK A01 T00970033  RH  064%=      5-min Rain = 0
KAI1 081007Z 24017KT 10/03 A2993 RMK A01 T00970032  RH  064%=      5-min Rain = 0
KAI1 081008Z 24015KT 10/03 A2993 RMK A01 T00970032  RH  064%=      5-min Rain = 0
KAI1 081009Z 25016G21KT 10/03 A2993 RMK A01 T00970032  RH  064%=      5-min Rain = 0
KAI1 081010Z 24015KT 10/03 A2993 RMK A01 T00970032  RH  064%=      5-min Rain = 0
KAI1 081011Z 24015KT 10/03 A2993 RMK A01 T00970032  RH  064%=      5-min Rain = 0
KAI1 081012Z 25014KT 10/03 A2993 RMK A01 T00960032  RH  064%=      5-min Rain = 0
KAI1 081013Z 24014KT 10/03 A2993 RMK A01 T00960032  RH  065%=      5-min Rain = 0
KAI1 081014Z 24014KT 10/03 A2993 RMK A01 T00960032  RH  064%=      5-min Rain = 0
KAI1 081015Z 24014KT 10/03 A2993 RMK A01 T00960032  RH  064%=      5-min Rain = 0
KAI1 081016Z 24014KT 10/03 A2993 RMK A01 T00960032  RH  065%=      5-min Rain = 0
KAI1 081017Z 24013KT 10/03 A2992 RMK A01 T00950032  RH  065%=      5-min Rain = 0
KAI1 081018Z 24013KT 10/03 A2992 RMK A01 T00950033  RH  065%=      5-min Rain = 0
KAI1 081019Z 24013KT 10/03 A2992 RMK A01 T00950033  RH  065%=      5-min Rain = 0
KAI1 081020Z 25014KT 10/03 A2992 RMK A01 T00950032  RH  065%=      5-min Rain = 0
KAI1 081021Z 24013KT 10/03 A2992 RMK A01 T00950032  RH  065%=      5-min Rain = 0
KAI1 081022Z 24012KT 10/03 A2992 RMK A01 T00950032  RH  065%=      5-min Rain = 0
KAI1 081023Z 24013KT 10/03 A2992 RMK A01 T00950032  RH  065%=      5-min Rain = 0
KAI1 081024Z 24013KT 10/03 A2992 RMK A01 T00950032  RH  065%=      5-min Rain = 0
KAI1 081025Z 24013KT 10/03 A2992 RMK A01 T00950032  RH  065%=      5-min Rain = 0
KAI1 081026Z 24014KT 10/03 A2992 RMK A01 T00950032  RH  065%=      5-min Rain = 0
KAI1 081027Z 24012KT 10/03 A2992 RMK A01 T00950032  RH  065%=      5-min Rain = 0
KAI1 081028Z 24013KT 10/03 A2992 RMK A01 T00950033  RH  065%=      5-min Rain = 0
KAI1 081029Z 24013KT 10/03 A2992 RMK A01 T00950033  RH  065%=      5-min Rain = 0
KAI1 081030Z 24012KT 10/03 A2992 RMK A01 T00950033  RH  065%=      5-min Rain = 0
KAI1 081031Z 24012KT 10/03 A2992 RMK A01 T00960033  RH  065%=      5-min Rain = 0
KAI1 081032Z 24013KT 10/03 A2992 RMK A01 T00950033  RH  065%=      5-min Rain = 0
KAI1 081033Z 24013KT 10/03 A2992 RMK A01 T00950033  RH  065%=      5-min Rain = 0
KAI1 081034Z 24012KT 10/03 A2992 RMK A01 T00950033  RH  065%=      5-min Rain = 0
KAI1 081035Z 24012KT 10/03 A2992 RMK A01 T00960033  RH  065%=      5-min Rain = 0
KAI1 081036Z 24012KT 10/03 A2992 RMK A01 T00950033  RH  065%=      5-min Rain = 0
KAI1 081037Z 24013KT 10/03 A2992 RMK A01 T00960033  RH  065%=      5-min Rain = 0
KAI1 081038Z 24014KT 10/03 A2992 RMK A01 T00970033  RH  065%=      5-min Rain = 0
KAI1 081039Z 24013KT 10/03 A2992 RMK A01 T00970033  RH  064%=      5-min Rain = 0
KAI1 081040Z 25015KT 10/03 A2992 RMK A01 T00980033  RH  064%=      5-min Rain = 0
KAI1 081041Z 25015KT 10/03 A2992 RMK A01 T00990033  RH  064%=      5-min Rain = 0
KAI1 081042Z 25014KT 10/03 A2992 RMK A01 T00990033  RH  064%=      5-min Rain = 0
KAI1 081043Z 25014KT 10/03 A2991 RMK A01 T01000034  RH  064%=      5-min Rain = 0
KAI1 081044Z 25015KT 10/03 A2991 RMK A01 T01000034  RH  063%=      5-min Rain = 0
KAI1 081045Z 25014KT 10/03 A2991 RMK A01 T01010034  RH  063%=      5-min Rain = 0
KAI1 081046Z 25014KT 10/03 A2991 RMK A01 T01020034  RH  063%=      5-min Rain = 0
KAI1 081047Z 25014KT 10/03 A2991 RMK A01 T01020034  RH  063%=      5-min Rain = 0
KAI1 081048Z 25014KT 10/03 A2991 RMK A01 T01020034  RH  063%=      5-min Rain = 0
KAI1 081049Z 25014KT 10/03 A2991 RMK A01 T01020034  RH  063%=      5-min Rain = 0
KAI1 081050Z 25014KT 10/04 A2991 RMK A01 T01030035  RH  062%=      5-min Rain = 0
KAI1 081051Z 25014KT 10/04 A2991 RMK A01 T01030035  RH  062%=      5-min Rain = 0
KAI1 081052Z 25014KT 10/04 A2991 RMK A01 T01040035  RH  062%=      5-min Rain = 0
KAI1 081053Z 25014KT 11/04 A2991 RMK A01 T01050035  RH  062%=      5-min Rain = 0
KAI1 081054Z 25015KT 11/04 A299 RMK A01 T01050036  RH  062%=      5-min Rain = 0
KAI1 081055Z 25013KT 11/04 A299 RMK A01 T01060036  RH  062%=      5-min Rain = 0
KAI1 081056Z 25015KT 11/04 A299 RMK A01 T01060036  RH  062%=      5-min Rain = 0
KAI1 081057Z 25015KT 11/04 A299 RMK A01 T01070036  RH  061%=      5-min Rain = 0
KAI1 081058Z 25014KT 11/04 A299 RMK A01 T01080036  RH  061%=      5-min Rain = 0
KAI1 081059Z 25014KT 11/04 A299 RMK A01 T01080036  RH  061%=      5-min Rain = 0
KAI1 081100Z 25015KT 11/04 A299 RMK A01 T01090036  RH  061%=      5-min Rain = 0
KAI1 081101Z 24015KT 11/04 A299 RMK A01 T01090036  RH  061%=      5-min Rain = 0
KAI1 081102Z 24015KT 11/04 A299 RMK A01 T01090036  RH  061%=      5-min Rain = 0
KAI1 081103Z 25015KT 11/04 A299 RMK A01 T01090036  RH  061%=      5-min Rain = 0
KAI1 081104Z 24014KT 11/04 A299 RMK A01 T01100036  RH  060%=      5-min Rain = 0
KAI1 081105Z 24015KT 11/04 A299 RMK A01 T01090036  RH  060%=      5-min Rain = 0
KAI1 081106Z 24014KT 11/04 A299 RMK A01 T01100036  RH  060%=      5-min Rain = 0
KAI1 081107Z 24015KT 11/04 A299 RMK A01 T01100036  RH  061%=      5-min Rain = 0
KAI1 081108Z 24014KT 11/04 A299 RMK A01 T01090036  RH  061%=      5-min Rain = 0
KAI1 081109Z 24015KT 11/04 A299 RMK A01 T01090036  RH  061%=      5-min Rain = 0
KAI1 081110Z 24014KT 11/04 A299 RMK A01 T01090036  RH  061%=      5-min Rain = 0
KAI1 081111Z 24015KT 11/04 A299 RMK A01 T01090036  RH  060%=      5-min Rain = 0
KAI1 081112Z 24014KT 11/04 A299 RMK A01 T01090035  RH  060%=      5-min Rain = 0
KAI1 081113Z 24014G19KT 11/04 A299 RMK A01 T01100036  RH  060%=      5-min Rain = 0
KAI1 081114Z 24014KT 11/04 A299 RMK A01 T01090035  RH  060%=      5-min Rain = 0
KAI1 081115Z 24014KT 11/04 A299 RMK A01 T01100035  RH  060%=      5-min Rain = 0
KAI1 081116Z 24014KT 11/04 A299 RMK A01 T01100036  RH  060%=      5-min Rain = 0
KAI1 081117Z 24014KT 11/04 A299 RMK A01 T01090036  RH  061%=      5-min Rain = 0
KAI1 081118Z 24014KT 11/04 A299 RMK A01 T01090036  RH  061%=      5-min Rain = 0
KAI1 081119Z 24014KT 11/04 A299 RMK A01 T01090036  RH  061%=      5-min Rain = 0
KAI1 081120Z 24014KT 11/04 A299 RMK A01 T01090036  RH  061%=      5-min Rain = 0
KAI1 081121Z 24013KT 11/04 A299 RMK A01 T01090036  RH  061%=      5-min Rain = 0
KAI1 081122Z 24012KT 11/04 A299 RMK A01 T01090036  RH  061%=      5-min Rain = 0
KAI1 081123Z 24012KT 11/04 A299 RMK A01 T01080036  RH  061%=      5-min Rain = 0
KAI1 081124Z 24012KT 11/04 A299 RMK A01 T01080036  RH  061%=      5-min Rain = 0
KAI1 081125Z 24013KT 11/04 A299 RMK A01 T01080036  RH  061%=      5-min Rain = 0
KAI1 081126Z 24014KT 11/04 A299 RMK A01 T01080036  RH  061%=      5-min Rain = 0
KAI1 081127Z 24012KT 11/04 A299 RMK A01 T01080036  RH  061%=      5-min Rain = 0
KAI1 081128Z 24012KT 11/04 A299 RMK A01 T01070036  RH  061%=      5-min Rain = 0
KAI1 081129Z 24013KT 11/04 A299 RMK A01 T01060036  RH  062%=      5-min Rain = 0
KAI1 081130Z 24013KT 11/04 A299 RMK A01 T01060036  RH  062%=      5-min Rain = 0
KAI1 081131Z 24013KT 11/04 A299 RMK A01 T01060036  RH  062%=      5-min Rain = 0
KAI1 081132Z 24013KT 11/04 A2991 RMK A01 T01060035  RH  062%=      5-min Rain = 0
KAI1 081133Z 24013KT 11/04 A2991 RMK A01 T01060036  RH  062%=      5-min Rain = 0
KAI1 081134Z 24013KT 11/04 A2991 RMK A01 T01060035  RH  062%=      5-min Rain = 0
KAI1 081135Z 24015KT 11/04 A2991 RMK A01 T01060036  RH  062%=      5-min Rain = 0
KAI1 081136Z 24014KT 11/04 A2991 RMK A01 T01060035  RH  062%=      5-min Rain = 0
KAI1 081137Z 24014KT 11/04 A2991 RMK A01 T01060036  RH  062%=      5-min Rain = 0
KAI1 081138Z 24014KT 11/04 A2991 RMK A01 T01060035  RH  061%=      5-min Rain = 0
KAI1 081139Z 24013KT 11/04 A2991 RMK A01 T01060036  RH  062%=      5-min Rain = 0
KAI1 081140Z 25014KT 11/04 A2991 RMK A01 T01060036  RH  062%=      5-min Rain = 0
KAI1 081141Z 24014KT 11/04 A2991 RMK A01 T01060036  RH  062%=      5-min Rain = 0
KAI1 081142Z 25015KT 11/04 A2991 RMK A01 T01060036  RH  062%=      5-min Rain = 0
KAI1 081143Z 25014KT 11/04 A2991 RMK A01 T01070036  RH  061%=      5-min Rain = 0
KAI1 081144Z 25014KT 11/04 A2991 RMK A01 T01070036  RH  061%=      5-min Rain = 0
KAI1 081145Z 25014KT 11/04 A2991 RMK A01 T01080036  RH  061%=      5-min Rain = 0
KAI1 081146Z 25013KT 11/04 A2991 RMK A01 T01080036  RH  061%=      5-min Rain = 0
KAI1 081147Z 25014KT 11/04 A2991 RMK A01 T01080036  RH  061%=      5-min Rain = 0
KAI1 081148Z 25014KT 11/04 A2991 RMK A01 T01080036  RH  061%=      5-min Rain = 0
KAI1 081149Z 25015G20KT 11/04 A2991 RMK A01 T01080036  RH  061%=      5-min Rain = 0
KAI1 081150Z 25016KT 11/04 A2991 RMK A01 T01090036  RH  061%=      5-min Rain = 0
KAI1 081151Z 25015KT 11/04 A2991 RMK A01 T01100036  RH  060%=      5-min Rain = 0
KAI1 081152Z 25015KT 11/04 A2991 RMK A01 T01100036  RH  060%=      5-min Rain = 0
KAI1 081153Z 25015KT 11/04 A2991 RMK A01 T01100036  RH  060%=      5-min Rain = 0
KAI1 081154Z 25015KT 11/04 A2991 RMK A01 T01100036  RH  060%=      5-min Rain = 0
KAI1 081155Z 25015KT 11/04 A2991 RMK A01 T01090036  RH  060%=      5-min Rain = 0
KAI1 081156Z 25014KT 11/04 A2991 RMK A01 T01090036  RH  061%=      5-min Rain = 0
KAI1 081157Z 24014KT 11/04 A2991 RMK A01 T01090036  RH  061%=      5-min Rain = 0
KAI1 081158Z 24013KT 11/04 A2991 RMK A01 T01080035  RH  061%=      5-min Rain = 0
KAI1 081159Z 25014KT 11/04 A2991 RMK A01 T01070035  RH  061%=      5-min Rain = 0
KAI1 081200Z 24015KT 11/04 A2991 RMK A01 T01070035  RH  061%=      5-min Rain = 0
KAI1 081201Z 24014KT 11/04 A2991 RMK A01 T01070035  RH  061%=      5-min Rain = 0
KAI1 081202Z 24015KT 11/04 A2991 RMK A01 T01070035  RH  061%=      5-min Rain = 0
KAI1 081203Z 24014KT 11/04 A2991 RMK A01 T01070035  RH  061%=      5-min Rain = 0
KAI1 081204Z 24013KT 11/04 A2991 RMK A01 T01070035  RH  061%=      5-min Rain = 0
KAI1 081205Z 24014KT 11/04 A2991 RMK A01 T01070035  RH  061%=      5-min Rain = 0
KAI1 081206Z 24014KT 11/04 A2991 RMK A01 T01070035  RH  061%=      5-min Rain = 0
KAI1 081207Z 24014KT 11/04 A2991 RMK A01 T01070036  RH  061%=      5-min Rain = 0
KAI1 081208Z 24014KT 11/04 A2991 RMK A01 T01070035  RH  061%=      5-min Rain = 0
KAI1 081209Z 24014KT 11/04 A2991 RMK A01 T01070036  RH  061%=      5-min Rain = 0
KAI1 081210Z 24014KT 11/04 A2991 RMK A01 T01080035  RH  061%=      5-min Rain = 0
KAI1 081211Z 24013KT 11/04 A2991 RMK A01 T01080036  RH  061%=      5-min Rain = 0
KAI1 081212Z 24013KT 11/04 A2991 RMK A01 T01090036  RH  061%=      5-min Rain = 0
KAI1 081213Z 24013KT 11/04 A2991 RMK A01 T01090036  RH  061%=      5-min Rain = 0
KAI1 081214Z 24014KT 11/04 A2991 RMK A01 T01090036  RH  061%=      5-min Rain = 0
KAI1 081215Z 24012KT 11/04 A2991 RMK A01 T01090036  RH  061%=      5-min Rain = 0
KAI1 081216Z 24014KT 11/04 A2991 RMK A01 T01100036  RH  060%=      5-min Rain = 0
KAI1 081217Z 24014KT 11/04 A299 RMK A01 T01100036  RH  060%=      5-min Rain = 0
KAI1 081218Z 24013KT 11/04 A299 RMK A01 T01110036  RH  060%=      5-min Rain = 0
KAI1 081219Z 24013G18KT 11/04 A299 RMK A01 T01110036  RH  060%=      5-min Rain = 0
KAI1 081220Z 24014KT 11/04 A299 RMK A01 T01110036  RH  060%=      5-min Rain = 0
KAI1 081221Z 24014KT 11/04 A299 RMK A01 T01120036  RH  060%=      5-min Rain = 0
KAI1 081222Z 25014KT 11/04 A299 RMK A01 T01120036  RH  060%=      5-min Rain = 0
KAI1 081223Z 24013KT 11/04 A299 RMK A01 T01120036  RH  059%=      5-min Rain = 0
KAI1 081224Z 25013KT 11/04 A299 RMK A01 T01120036  RH  059%=      5-min Rain = 0
KAI1 081225Z 24013KT 11/04 A299 RMK A01 T01120036  RH  059%=      5-min Rain = 0
KAI1 081226Z 24012KT 11/04 A299 RMK A01 T01130036  RH  059%=      5-min Rain = 0
KAI1 081227Z 24012KT 11/04 A299 RMK A01 T01130036  RH  059%=      5-min Rain = 0
KAI1 081228Z 24012KT 11/04 A299 RMK A01 T01130036  RH  059%=      5-min Rain = 0
KAI1 081229Z 24012KT 11/04 A299 RMK A01 T01130036  RH  059%=      5-min Rain = 0
KAI1 081230Z 24012KT 11/04 A299 RMK A01 T01120036  RH  059%=      5-min Rain = 0
KAI1 081231Z 24012KT 11/04 A299 RMK A01 T01120036  RH  059%=      5-min Rain = 0
KAI1 081232Z 24010KT 11/04 A299 RMK A01 T01120036  RH  059%=      5-min Rain = 0
KAI1 081233Z 24012KT 11/04 A299 RMK A01 T01120036  RH  059%=      5-min Rain = 0
KAI1 081234Z 25011KT 11/04 A299 RMK A01 T01120036  RH  060%=      5-min Rain = 0
KAI1 081235Z 24011KT 11/04 A299 RMK A01 T01120036  RH  060%=      5-min Rain = 0
KAI1 081236Z 25012KT 11/04 A299 RMK A01 T01110036  RH  060%=      5-min Rain = 0
KAI1 081237Z 24012KT 11/04 A299 RMK A01 T01110036  RH  060%=      5-min Rain = 0
KAI1 081238Z 24011KT 11/04 A299 RMK A01 T01120036  RH  060%=      5-min Rain = 0
KAI1 081239Z 24011KT 11/04 A299 RMK A01 T01120036  RH  060%=      5-min Rain = 0
KAI1 081240Z 24011KT 11/04 A299 RMK A01 T01120036  RH  060%=      5-min Rain = 0
KAI1 081241Z 24012KT 11/04 A299 RMK A01 T01120036  RH  059%=      5-min Rain = 0
KAI1 081242Z 25012KT 11/04 A299 RMK A01 T01120036  RH  059%=      5-min Rain = 0
KAI1 081243Z 25012KT 11/04 A299 RMK A01 T01130036  RH  059%=      5-min Rain = 0
KAI1 081244Z 25012KT 11/04 A299 RMK A01 T01130036  RH  059%=      5-min Rain = 0
KAI1 081245Z 25011KT 11/04 A299 RMK A01 T01130036  RH  059%=      5-min Rain = 0
KAI1 081246Z 25012KT 11/04 A299 RMK A01 T01120036  RH  059%=      5-min Rain = 0
KAI1 081247Z 25011KT 11/04 A299 RMK A01 T01120036  RH  060%=      5-min Rain = 0
KAI1 081248Z 25011KT 11/04 A299 RMK A01 T01110036  RH  060%=      5-min Rain = 0
KAI1 081249Z 26013KT 11/04 A299 RMK A01 T01110037  RH  060%=      5-min Rain = 0
KAI1 081250Z 26013KT 11/04 A299 RMK A01 T01120037  RH  060%=      5-min Rain = 0
KAI1 081251Z 26014KT 11/04 A299 RMK A01 T01120037  RH  060%=      5-min Rain = 0
KAI1 081252Z 25014KT 11/04 A299 RMK A01 T01120037  RH  060%=      5-min Rain = 0
KAI1 081253Z 25013KT 11/04 A299 RMK A01 T01130037  RH  060%=      5-min Rain = 0
KAI1 081254Z 25013KT 11/04 A299 RMK A01 T01130037  RH  059%=      5-min Rain = 0
KAI1 081255Z 25012KT 11/04 A299 RMK A01 T01130037  RH  060%=      5-min Rain = 0
KAI1 081256Z 24013KT 11/04 A299 RMK A01 T01130037  RH  060%=      5-min Rain = 0
KAI1 081257Z 25012KT 11/04 A299 RMK A01 T01120037  RH  060%=      5-min Rain = 0
KAI1 081258Z 25012KT 11/04 A299 RMK A01 T01120037  RH  060%=      5-min Rain = 0
KAI1 081259Z 25012KT 11/04 A299 RMK A01 T01110037  RH  060%=      5-min Rain = 0
KAI1 081300Z 25012KT 11/04 A299 RMK A01 T01110037  RH  060%=      5-min Rain = 0
KAI1 081301Z 25013KT 11/04 A299 RMK A01 T01110037  RH  060%=      5-min Rain = 0
KAI1 081302Z 25012KT 11/04 A299 RMK A01 T01110037  RH  060%=      5-min Rain = 0
KAI1 081303Z 25013KT 11/04 A299 RMK A01 T01110037  RH  060%=      5-min Rain = 0
KAI1 081304Z 25012KT 11/04 A2991 RMK A01 T01120037  RH  060%=      5-min Rain = 0
KAI1 081305Z 25012KT 11/04 A2991 RMK A01 T01120037  RH  060%=      5-min Rain = 0
KAI1 081306Z 25010KT 11/04 A2991 RMK A01 T01120037  RH  060%=      5-min Rain = 0
KAI1 081307Z 25011KT 11/04 A2991 RMK A01 T01110037  RH  060%=      5-min Rain = 0
KAI1 081308Z 25012KT 11/04 A2991 RMK A01 T01110037  RH  060%=      5-min Rain = 0
KAI1 081309Z 25012KT 11/04 A2991 RMK A01 T01110037  RH  061%=      5-min Rain = 0
KAI1 081310Z 25011KT 11/04 A2991 RMK A01 T01100037  RH  060%=      5-min Rain = 0
KAI1 081311Z 25012KT 11/04 A299 RMK A01 T01100037  RH  060%=      5-min Rain = 0
KAI1 081312Z 25013KT 11/04 A299 RMK A01 T01110037  RH  061%=      5-min Rain = 0
KAI1 081313Z 25013KT 11/04 A299 RMK A01 T01100037  RH  061%=      5-min Rain = 0
KAI1 081314Z 25013KT 11/04 A299 RMK A01 T01110037  RH  060%=      5-min Rain = 0
KAI1 081315Z 25014KT 11/04 A299 RMK A01 T01110037  RH  060%=      5-min Rain = 0
KAI1 081316Z 25012KT 11/04 A299 RMK A01 T01110037  RH  060%=      5-min Rain = 0
KAI1 081317Z 25012KT 11/04 A299 RMK A01 T01110037  RH  060%=      5-min Rain = 0
KAI1 081318Z 25012KT 11/04 A299 RMK A01 T01100037  RH  060%=      5-min Rain = 0
KAI1 081319Z 25012KT 11/04 A299 RMK A01 T01100037  RH  061%=      5-min Rain = 0
KAI1 081320Z 25012KT 11/04 A299 RMK A01 T01090037  RH  061%=      5-min Rain = 0
KAI1 081321Z 25012KT 11/04 A299 RMK A01 T01090037  RH  061%=      5-min Rain = 0
KAI1 081322Z 25012KT 11/04 A299 RMK A01 T01090037  RH  061%=      5-min Rain = 0
KAI1 081323Z 25010KT 11/04 A299 RMK A01 T01090037  RH  061%=      5-min Rain = 0
KAI1 081324Z 24011KT 11/04 A299 RMK A01 T01080037  RH  061%=      5-min Rain = 0
KAI1 081325Z 25011KT 11/04 A299 RMK A01 T01080037  RH  061%=      5-min Rain = 0
KAI1 081326Z 25012KT 11/04 A299 RMK A01 T01080037  RH  061%=      5-min Rain = 0
KAI1 081327Z 25011KT 11/04 A299 RMK A01 T01080037  RH  061%=      5-min Rain = 0
KAI1 081328Z 25011KT 11/04 A299 RMK A01 T01080037  RH  061%=      5-min Rain = 0
KAI1 081329Z 25011KT 11/04 A299 RMK A01 T01080037  RH  061%=      5-min Rain = 0
KAI1 081330Z 25011KT 11/04 A299 RMK A01 T01080037  RH  061%=      5-min Rain = 0
KAI1 081331Z 25011KT 11/04 A299 RMK A01 T01080037  RH  061%=      5-min Rain = 0
KAI1 081332Z 25012KT 11/04 A299 RMK A01 T01080037  RH  061%=      5-min Rain = 0
KAI1 081333Z 24011KT 11/04 A299 RMK A01 T01090037  RH  061%=      5-min Rain = 0
KAI1 081334Z 24012KT 11/04 A299 RMK A01 T01090037  RH  061%=      5-min Rain = 0
KAI1 081335Z 24012KT 11/04 A299 RMK A01 T01090037  RH  061%=      5-min Rain = 0
KAI1 081336Z 24012KT 11/04 A299 RMK A01 T01090037  RH  061%=      5-min Rain = 0
KAI1 081337Z 24011KT 11/04 A299 RMK A01 T01100037  RH  061%=      5-min Rain = 0
KAI1 081338Z 24011KT 11/04 A299 RMK A01 T01100038  RH  061%=      5-min Rain = 0
KAI1 081339Z 24011KT 11/04 A299 RMK A01 T01090037  RH  061%=      5-min Rain = 0
KAI1 081340Z 24011KT 11/04 A2989 RMK A01 T01100037  RH  061%=      5-min Rain = 0
KAI1 081341Z 25010KT 11/04 A2989 RMK A01 T01090037  RH  061%=      5-min Rain = 0
KAI1 081342Z 24011KT 11/04 A2989 RMK A01 T01100037  RH  061%=      5-min Rain = 0
KAI1 081343Z 25011KT 11/04 A2989 RMK A01 T01100037  RH  061%=      5-min Rain = 0
KAI1 081344Z 25010KT 11/04 A2989 RMK A01 T01100037  RH  061%=      5-min Rain = 0
KAI1 081345Z 25011KT 11/04 A2989 RMK A01 T01100037  RH  061%=      5-min Rain = 0
KAI1 081346Z 25010KT 11/04 A2989 RMK A01 T01110037  RH  061%=      5-min Rain = 0
KAI1 081347Z 25011KT 11/04 A2989 RMK A01 T01100037  RH  061%=      5-min Rain = 0
KAI1 081348Z 25011KT 11/04 A2989 RMK A01 T01110037  RH  060%=      5-min Rain = 0
KAI1 081349Z 25011KT 11/04 A2989 RMK A01 T01110037  RH  060%=      5-min Rain = 0
KAI1 081350Z 25010KT 11/04 A2989 RMK A01 T01110037  RH  060%=      5-min Rain = 0
KAI1 081351Z 24011KT 11/04 A2989 RMK A01 T01110037  RH  060%=      5-min Rain = 0
KAI1 081352Z 25010KT 11/04 A2989 RMK A01 T01110038  RH  061%=      5-min Rain = 0
KAI1 081353Z 25010KT 11/04 A2989 RMK A01 T01110037  RH  060%=      5-min Rain = 0
KAI1 081354Z 25009KT 11/04 A2989 RMK A01 T01110038  RH  060%=      5-min Rain = 0
KAI1 081355Z 25011KT 11/04 A299 RMK A01 T01110038  RH  061%=      5-min Rain = 0
KAI1 081356Z 25010KT 11/04 A299 RMK A01 T01110038  RH  061%=      5-min Rain = 0
KAI1 081357Z 25010KT 11/04 A299 RMK A01 T01110038  RH  061%=      5-min Rain = 0
KAI1 081358Z 25011KT 11/04 A299 RMK A01 T01110038  RH  061%=      5-min Rain = 0
KAI1 081359Z 25009KT 11/04 A299 RMK A01 T01110038  RH  061%=      5-min Rain = 0
KAI1 081400Z 26010KT 11/04 A299 RMK A01 T01110038  RH  061%=      5-min Rain = 0
KAI1 081401Z 26009KT 11/04 A299 RMK A01 T01110038  RH  061%=      5-min Rain = 0
KAI1 081402Z 26008KT 11/04 A299 RMK A01 T01100038  RH  061%=      5-min Rain = 0
KAI1 081403Z 26008KT 11/04 A299 RMK A01 T01090038  RH  061%=      5-min Rain = 0
KAI1 081404Z 27008KT 11/04 A299 RMK A01 T01090038  RH  062%=      5-min Rain = 0
KAI1 081405Z 28008KT 11/04 A299 RMK A01 T01090038  RH  062%=      5-min Rain = 0
KAI1 081406Z 29007KT 11/04 A299 RMK A01 T01080038  RH  062%=      5-min Rain = 0
KAI1 081407Z 29006KT 11/04 A299 RMK A01 T01080038  RH  062%=      5-min Rain = 0
KAI1 081408Z 30006KT 11/04 A299 RMK A01 T01070038  RH  062%=      5-min Rain = 0
KAI1 081409Z 29006KT 11/04 A299 RMK A01 T01060038  RH  063%=      5-min Rain = 0
KAI1 081410Z 29007KT 11/04 A299 RMK A01 T01050038  RH  063%=      5-min Rain = 0
KAI1 081411Z 28007KT 11/04 A299 RMK A01 T01050037  RH  063%=      5-min Rain = 0
KAI1 081412Z 28006KT 10/04 A299 RMK A01 T01040037  RH  063%=      5-min Rain = 0
KAI1 081413Z 27007KT 11/04 A299 RMK A01 T01050038  RH  063%=      5-min Rain = 0
KAI1 081414Z 27007KT 10/04 A299 RMK A01 T01040038  RH  063%=      5-min Rain = 0
KAI1 081415Z 28006KT 11/04 A299 RMK A01 T01050038  RH  063%=      5-min Rain = 0
KAI1 081416Z 29005KT 11/04 A299 RMK A01 T01050038  RH  063%=      5-min Rain = 0
KAI1 081417Z 31005KT 10/04 A299 RMK A01 T01040039  RH  064%=      5-min Rain = 0
KAI1 081418Z 33006KT 10/04 A299 RMK A01 T01040040  RH  064%=      5-min Rain = 0
KAI1 081419Z 34005KT 10/04 A299 RMK A01 T01020040  RH  065%=      5-min Rain = 0
KAI1 081420Z 35004KT 10/04 A299 RMK A01 T01010040  RH  066%=      5-min Rain = 0
KAI1 081421Z 35004KT 10/04 A299 RMK A01 T01000040  RH  066%=      5-min Rain = 0
KAI1 081422Z 34004KT 10/04 A299 RMK A01 T00990040  RH  067%=      5-min Rain = 0
KAI1 081423Z 34004KT 10/04 A299 RMK A01 T00990040  RH  067%=      5-min Rain = 0
KAI1 081424Z 33004KT 10/04 A299 RMK A01 T00990039  RH  067%=      5-min Rain = 0
KAI1 081425Z 31005KT 10/04 A299 RMK A01 T00990040  RH  067%=      5-min Rain = 0
KAI1 081426Z 30004KT 10/04 A299 RMK A01 T01000040  RH  066%=      5-min Rain = 0
KAI1 081427Z 29005KT 10/04 A299 RMK A01 T01010040  RH  066%=      5-min Rain = 0
KAI1 081428Z 29006KT 10/04 A299 RMK A01 T01030040  RH  065%=      5-min Rain = 0
KAI1 081429Z 28005KT 10/04 A299 RMK A01 T01040040  RH  064%=      5-min Rain = 0
KAI1 081430Z 28005KT 11/04 A299 RMK A01 T01050040  RH  064%=      5-min Rain = 0
KAI1 081431Z 27005KT 11/04 A299 RMK A01 T01050039  RH  064%=      5-min Rain = 0
KAI1 081432Z 27005KT 11/04 A2989 RMK A01 T01060039  RH  063%=      5-min Rain = 0
KAI1 081433Z 27005KT 11/04 A2989 RMK A01 T01070040  RH  063%=      5-min Rain = 0
KAI1 081434Z 27005KT 11/04 A2989 RMK A01 T01080040  RH  063%=      5-min Rain = 0
KAI1 081435Z 26004KT 11/04 A299 RMK A01 T01090040  RH  062%=      5-min Rain = 0
KAI1 081436Z 26005KT 11/04 A299 RMK A01 T01090041  RH  062%=      5-min Rain = 0
KAI1 081437Z 26004KT 11/04 A299 RMK A01 T01100041  RH  062%=      5-min Rain = 0
KAI1 081438Z 27005KT 11/04 A299 RMK A01 T01100041  RH  062%=      5-min Rain = 0
KAI1 081439Z 27004KT 11/04 A299 RMK A01 T01100040  RH  062%=      5-min Rain = 0
KAI1 081440Z 26004KT 11/04 A299 RMK A01 T01110041  RH  062%=      5-min Rain = 0
KAI1 081441Z 26004KT 11/04 A299 RMK A01 T01110041  RH  062%=      5-min Rain = 0
KAI1 081442Z 25004KT 11/04 A299 RMK A01 T01110041  RH  062%=      5-min Rain = 0
KAI1 081443Z 25004KT 11/04 A299 RMK A01 T01110041  RH  062%=      5-min Rain = 0
KAI1 081444Z 25005KT 11/04 A299 RMK A01 T01110041  RH  062%=      5-min Rain = 0
KAI1 081445Z 25004KT 11/04 A299 RMK A01 T01110040  RH  061%=      5-min Rain = 0
KAI1 081446Z 25004KT 11/04 A299 RMK A01 T01110040  RH  062%=      5-min Rain = 0
KAI1 081447Z 25004KT 11/04 A299 RMK A01 T01110040  RH  062%=      5-min Rain = 0
KAI1 081448Z 25003KT 11/04 A299 RMK A01 T01110041  RH  062%=      5-min Rain = 0
KAI1 081449Z 25003KT 11/04 A299 RMK A01 T01120042  RH  062%=      5-min Rain = 0
KAI1 081450Z 25003KT 11/04 A299 RMK A01 T01120042  RH  062%=      5-min Rain = 0
KAI1 081451Z 25003KT 11/04 A299 RMK A01 T01120042  RH  062%=      5-min Rain = 0
KAI1 081452Z 26004KT 11/04 A299 RMK A01 T01130042  RH  062%=      5-min Rain = 0
KAI1 081453Z 26003KT 11/04 A2989 RMK A01 T01140043  RH  062%=      5-min Rain = 0
KAI1 081454Z 26004KT 11/04 A2989 RMK A01 T01140042  RH  061%=      5-min Rain = 0
KAI1 081455Z 26004KT 12/04 A2989 RMK A01 T01150042  RH  061%=      5-min Rain = 0
KAI1 081456Z 26003KT 12/04 A2989 RMK A01 T01160042  RH  060%=      5-min Rain = 0
KAI1 081457Z 26003KT 12/04 A2989 RMK A01 T01170043  RH  060%=      5-min Rain = 0
KAI1 081458Z 25003KT 12/04 A2989 RMK A01 T01180043  RH  060%=      5-min Rain = 0
KAI1 081459Z 25003KT 12/04 A2989 RMK A01 T01190043  RH  060%=      5-min Rain = 0
KAI1 081500Z 25004G9KT 12/04 A2989 RMK A01 T01190043  RH  060%=      5-min Rain = 0
KAI1 081501Z 25007KT 12/04 A2989 RMK A01 T01200043  RH  059%=      5-min Rain = 0
KAI1 081502Z 26008KT 12/04 A2989 RMK A01 T01230043  RH  058%=      5-min Rain = 0
KAI1 081503Z 27010KT 13/04 A2989 RMK A01 T01260042  RH  057%=      5-min Rain = 0
KAI1 081504Z 27010KT 13/04 A2989 RMK A01 T01310043  RH  055%=      5-min Rain = 0
KAI1 081505Z 27011KT 13/04 A2989 RMK A01 T01340042  RH  054%=      5-min Rain = 0
KAI1 081506Z 27011KT 14/04 A2989 RMK A01 T01360042  RH  053%=      5-min Rain = 0
KAI1 081507Z 27013G18KT 14/04 A2989 RMK A01 T01380042  RH  052%=      5-min Rain = 0
KAI1 081508Z 27012KT 14/04 A2989 RMK A01 T01400041  RH  051%=      5-min Rain = 0
KAI1 081509Z 27015KT 14/04 A2989 RMK A01 T01410041  RH  051%=      5-min Rain = 0
KAI1 081510Z 27016KT 14/04 A2989 RMK A01 T01430040  RH  050%=      5-min Rain = 0
KAI1 081511Z 27016KT 15/04 A2989 RMK A01 T01450041  RH  049%=      5-min Rain = 0
KAI1 081512Z 26014KT 15/04 A2989 RMK A01 T01470041  RH  049%=      5-min Rain = 0
KAI1 081513Z 26014KT 15/04 A2989 RMK A01 T01480042  RH  049%=      5-min Rain = 0
KAI1 081514Z 27016KT 15/04 A2989 RMK A01 T01500042  RH  048%=      5-min Rain = 0
KAI1 081515Z 27020KT 15/04 A2989 RMK A01 T01500041  RH  048%=      5-min Rain = 0
KAI1 081516Z 27015KT 15/04 A2989 RMK A01 T01510041  RH  048%=      5-min Rain = 0
KAI1 081517Z 27016G21KT 15/04 A2989 RMK A01 T01510041  RH  048%=      5-min Rain = 0
KAI1 081518Z 26016G24KT 15/04 A2989 RMK A01 T01510041  RH  048%=      5-min Rain = 0
KAI1 081519Z 27020KT 15/04 A2989 RMK A01 T01520041  RH  047%=      5-min Rain = 0
KAI1 081520Z 26018G23KT 15/04 A2989 RMK A01 T01520040  RH  047%=      5-min Rain = 0
KAI1 081521Z 27021KT 15/04 A2989 RMK A01 T01520040  RH  047%=      5-min Rain = 0
KAI1 081522Z 27019KT 15/04 A2989 RMK A01 T01520039  RH  047%=      5-min Rain = 0
KAI1 081523Z 27017KT 15/04 A2989 RMK A01 T01520040  RH  047%=      5-min Rain = 0
KAI1 081524Z 27021KT 15/04 A2989 RMK A01 T01510040  RH  047%=      5-min Rain = 0
KAI1 081525Z 27017KT 15/04 A2989 RMK A01 T01510039  RH  047%=      5-min Rain = 0
KAI1 081526Z 27017KT 15/04 A2988 RMK A01 T01510039  RH  047%=      5-min Rain = 0
KAI1 081527Z 27014G19KT 15/04 A2989 RMK A01 T01510040  RH  047%=      5-min Rain = 0
KAI1 081528Z 27019KT 15/04 A2988 RMK A01 T01500040  RH  048%=      5-min Rain = 0
KAI1 081529Z 27018G24KT 15/04 A2989 RMK A01 T01500040  RH  048%=      5-min Rain = 0
KAI1 081530Z 27017G23KT 15/04 A2988 RMK A01 T01500039  RH  048%=      5-min Rain = 0
KAI1 081531Z 27017KT 15/04 A2988 RMK A01 T01500039  RH  047%=      5-min Rain = 0
KAI1 081532Z 27015KT 15/04 A2988 RMK A01 T01500040  RH  048%=      5-min Rain = 0
KAI1 081533Z 27017G24KT 15/04 A2988 RMK A01 T01490039  RH  048%=      5-min Rain = 0
KAI1 081534Z 27017KT 15/04 A2988 RMK A01 T01490039  RH  048%=      5-min Rain = 0
KAI1 081535Z 27017G22KT 15/04 A2988 RMK A01 T01490039  RH  048%=      5-min Rain = 0
KAI1 081536Z 27019G24KT 15/04 A2988 RMK A01 T01490039  RH  047%=      5-min Rain = 0
KAI1 081537Z 27016KT 15/04 A2988 RMK A01 T01500039  RH  047%=      5-min Rain = 0
KAI1 081538Z 27017KT 15/04 A2989 RMK A01 T01500039  RH  048%=      5-min Rain = 0
KAI1 081539Z 27020KT 15/04 A2988 RMK A01 T01490039  RH  047%=      5-min Rain = 0
KAI1 081540Z 27019KT 15/04 A2989 RMK A01 T01500039  RH  047%=      5-min Rain = 0
KAI1 081541Z 27020KT 15/04 A2989 RMK A01 T01500039  RH  047%=      5-min Rain = 0
KAI1 081542Z 26023KT 15/04 A2989 RMK A01 T01500039  RH  047%=      5-min Rain = 0
KAI1 081543Z 27019KT 15/04 A2989 RMK A01 T01510039  RH  047%=      5-min Rain = 0
KAI1 081544Z 27023G30KT 15/04 A2989 RMK A01 T01510039  RH  047%=      5-min Rain = 0
KAI1 081545Z 27023G31KT 15/04 A2989 RMK A01 T01510039  RH  047%=      5-min Rain = 0
KAI1 081546Z 27025KT 15/04 A2989 RMK A01 T01520038  RH  047%=      5-min Rain = 0
KAI1 081547Z 27022G28KT 15/04 A2989 RMK A01 T01530039  RH  046%=      5-min Rain = 0
KAI1 081548Z 27021KT 15/04 A2989 RMK A01 T01530039  RH  047%=      5-min Rain = 0
KAI1 081549Z 26021KT 15/04 A2989 RMK A01 T01530039  RH  047%=      5-min Rain = 0
KAI1 081550Z 27024KT 15/04 A2988 RMK A01 T01530039  RH  047%=      5-min Rain = 0
KAI1 081551Z 27022G27KT 15/04 A2988 RMK A01 T01530039  RH  046%=      5-min Rain = 0
KAI1 081552Z 26020G27KT 15/04 A2988 RMK A01 T01540039  RH  046%=      5-min Rain = 0
KAI1 081553Z 26019KT 15/04 A2988 RMK A01 T01540039  RH  046%=      5-min Rain = 0
KAI1 081554Z 26018KT 15/04 A2988 RMK A01 T01540039  RH  046%=      5-min Rain = 0
KAI1 081555Z 26020KT 15/04 A2988 RMK A01 T01540040  RH  047%=      5-min Rain = 0
KAI1 081556Z 26019G24KT 15/04 A2988 RMK A01 T01540040  RH  047%=      5-min Rain = 0
KAI1 081557Z 26021KT 15/04 A2988 RMK A01 T01540040  RH  047%=      5-min Rain = 0
KAI1 081558Z 27018KT 15/04 A2988 RMK A01 T01540040  RH  047%=      5-min Rain = 0
KAI1 081559Z 26022KT 15/04 A2988 RMK A01 T01540040  RH  046%=      5-min Rain = 0
KAI1 081600Z 26019KT 16/04 A2988 RMK A01 T01550040  RH  046%=      5-min Rain = 0
KAI1 081601Z 26023KT 16/04 A2988 RMK A01 T01550040  RH  046%=      5-min Rain = 0
KAI1 081602Z 26021KT 16/04 A2988 RMK A01 T01550039  RH  046%=      5-min Rain = 0
KAI1 081603Z 26020KT 16/04 A2988 RMK A01 T01560040  RH  046%=      5-min Rain = 0
KAI1 081604Z 27020G25KT 16/04 A2988 RMK A01 T01560040  RH  046%=      5-min Rain = 0
KAI1 081605Z 27019KT 16/04 A2988 RMK A01 T01560040  RH  046%=      5-min Rain = 0
KAI1 081606Z 26018KT 16/04 A2988 RMK A01 T01560041  RH  046%=      5-min Rain = 0
KAI1 081607Z 26019G24KT 16/04 A2988 RMK A01 T01570040  RH  046%=      5-min Rain = 0
KAI1 081608Z 27020KT 16/04 A2988 RMK A01 T01570041  RH  046%=      5-min Rain = 0
KAI1 081609Z 27019KT 16/04 A2988 RMK A01 T01570040  RH  046%=      5-min Rain = 0
KAI1 081610Z 27018KT 16/04 A2988 RMK A01 T01580041  RH  046%=      5-min Rain = 0
KAI1 081611Z 27020KT 16/04 A2988 RMK A01 T01580041  RH  045%=      5-min Rain = 0
KAI1 081612Z 26021KT 16/04 A2988 RMK A01 T01590040  RH  045%=      5-min Rain = 0
KAI1 081613Z 26020G25KT 16/04 A2988 RMK A01 T01590041  RH  045%=      5-min Rain = 0
KAI1 081614Z 27020KT 16/04 A2988 RMK A01 T01600041  RH  045%=      5-min Rain = 0
KAI1 081615Z 27020G25KT 16/04 A2988 RMK A01 T01620041  RH  045%=      5-min Rain = 0
KAI1 081616Z 26018KT 16/04 A2988 RMK A01 T01620041  RH  044%=      5-min Rain = 0
KAI1 081617Z 27020G26KT 16/04 A2988 RMK A01 T01630042  RH  044%=      5-min Rain = 0
KAI1 081618Z 27022KT 16/04 A2988 RMK A01 T01640041  RH  044%=      5-min Rain = 0
KAI1 081619Z 26020KT 17/04 A2988 RMK A01 T01650041  RH  044%=      5-min Rain = 0
KAI1 081620Z 27021G27KT 17/04 A2988 RMK A01 T01670042  RH  044%=      5-min Rain = 0
KAI1 081621Z 26020G25KT 17/04 A2988 RMK A01 T01680042  RH  043%=      5-min Rain = 0
KAI1 081622Z 26023KT 17/04 A2988 RMK A01 T01680042  RH  043%=      5-min Rain = 0
KAI1 081623Z 27024KT 17/04 A2988 RMK A01 T01700041  RH  042%=      5-min Rain = 0
KAI1 081624Z 27024G29KT 17/04 A2988 RMK A01 T01710041  RH  042%=      5-min Rain = 0
KAI1 081625Z 27020G26KT 17/04 A2988 RMK A01 T01710041  RH  042%=      5-min Rain = 0
KAI1 081626Z 27021G29KT 17/04 A2988 RMK A01 T01720043  RH  042%=      5-min Rain = 0
KAI1 081627Z 27026KT 17/04 A2988 RMK A01 T01730042  RH  042%=      5-min Rain = 0
KAI1 081628Z 27027G32KT 17/04 A2988 RMK A01 T01720041  RH  042%=      5-min Rain = 0
KAI1 081629Z 27025KT 17/04 A2988 RMK A01 T01710041  RH  042%=      5-min Rain = 0
KAI1 081630Z 27028G33KT 17/04 A2988 RMK A01 T01710041  RH  042%=      5-min Rain = 0
KAI1 081631Z 27022G29KT 17/04 A2988 RMK A01 T01710042  RH  042%=      5-min Rain = 0
KAI1 081632Z 27020G29KT 17/04 A2988 RMK A01 T01710043  RH  043%=      5-min Rain = 0
KAI1 081633Z 27020G27KT 17/04 A2988 RMK A01 T01720043  RH  042%=      5-min Rain = 0
KAI1 081634Z 27021G28KT 17/04 A2988 RMK A01 T01720043  RH  042%=      5-min Rain = 0
KAI1 081635Z 27023KT 17/04 A2987 RMK A01 T01730043  RH  042%=      5-min Rain = 0
KAI1 081636Z 27023G30KT 17/04 A2987 RMK A01 T01730043  RH  042%=      5-min Rain = 0
KAI1 081637Z 27028KT 17/04 A2987 RMK A01 T01730042  RH  042%=      5-min Rain = 0
KAI1 081638Z 27023G28KT 17/04 A2987 RMK A01 T01730042  RH  042%=      5-min Rain = 0
KAI1 081639Z 27028KT 17/04 A2987 RMK A01 T01740043  RH  042%=      5-min Rain = 0
KAI1 081640Z 27024KT 17/04 A2987 RMK A01 T01740043  RH  042%=      5-min Rain = 0
KAI1 081641Z 26021G27KT 17/04 A2987 RMK A01 T01740043  RH  042%=      5-min Rain = 0
KAI1 081642Z 27024KT 18/04 A2987 RMK A01 T01750044  RH  042%=      5-min Rain = 0
KAI1 081643Z 27027G32KT 18/04 A2987 RMK A01 T01750043  RH  041%=      5-min Rain = 0
KAI1 081644Z 27028G33KT 17/04 A2987 RMK A01 T01740041  RH  041%=      5-min Rain = 0
KAI1 081645Z 27023G30KT 17/04 A2987 RMK A01 T01740042  RH  042%=      5-min Rain = 0
KAI1 081646Z 27022G31KT 17/04 A2988 RMK A01 T01730042  RH  042%=      5-min Rain = 0
KAI1 081647Z 27024KT 17/04 A2987 RMK A01 T01730042  RH  042%=      5-min Rain = 0
KAI1 081648Z 27024KT 17/04 A2987 RMK A01 T01730042  RH  042%=      5-min Rain = 0
KAI1 081649Z 27022G27KT 17/04 A2988 RMK A01 T01730042  RH  042%=      5-min Rain = 0
KAI1 081650Z 27024G31KT 17/04 A2988 RMK A01 T01720042  RH  042%=      5-min Rain = 0
KAI1 081651Z 27022G29KT 17/04 A2988 RMK A01 T01720042  RH  042%=      5-min Rain = 0
KAI1 081652Z 27023G28KT 17/04 A2988 RMK A01 T01710041  RH  042%=      5-min Rain = 0
KAI1 081653Z 27022G28KT 17/04 A2987 RMK A01 T01700041  RH  042%=      5-min Rain = 0
KAI1 081654Z 27021G27KT 17/04 A2988 RMK A01 T01700042  RH  043%=      5-min Rain = 0
KAI1 081655Z 27021KT 17/04 A2987 RMK A01 T01700042  RH  043%=      5-min Rain = 0
KAI1 081656Z 27023KT 17/04 A2988 RMK A01 T01700042  RH  043%=      5-min Rain = 0
KAI1 081657Z 26024G29KT 17/04 A2988 RMK A01 T01690042  RH  043%=      5-min Rain = 0
KAI1 081658Z 27024KT 17/04 A2988 RMK A01 T01680042  RH  043%=      5-min Rain = 0
KAI1 081659Z 27024KT 17/04 A2987 RMK A01 T01680041  RH  043%=      5-min Rain = 0
KAI1 081700Z 27022KT 17/04 A2988 RMK A01 T01670041  RH  043%=      5-min Rain = 0
KAI1 081701Z 27022KT 17/04 A2988 RMK A01 T01670042  RH  043%=      5-min Rain = 0
KAI1 081702Z 27023KT 17/04 A2987 RMK A01 T01670042  RH  043%=      5-min Rain = 0
KAI1 081703Z 26023G30KT 17/04 A2987 RMK A01 T01660042  RH  043%=      5-min Rain = 0
KAI1 081704Z 27025KT 17/04 A2988 RMK A01 T01660041  RH  043%=      5-min Rain = 0
KAI1 081705Z 26024KT 17/04 A2987 RMK A01 T01660041  RH  044%=      5-min Rain = 0
KAI1 081706Z 27028KT 17/04 A2987 RMK A01 T01650041  RH  044%=      5-min Rain = 0
KAI1 081707Z 27021G27KT 17/04 A2988 RMK A01 T01660041  RH  044%=      5-min Rain = 0
KAI1 081708Z 27022KT 17/04 A2988 RMK A01 T01660042  RH  044%=      5-min Rain = 0
KAI1 081709Z 27023KT 17/04 A2988 RMK A01 T01660042  RH  044%=      5-min Rain = 0
KAI1 081710Z 27021G29KT 17/04 A2988 RMK A01 T01670042  RH  043%=      5-min Rain = 0
KAI1 081711Z 26020KT 17/04 A2988 RMK A01 T01670042  RH  043%=      5-min Rain = 0
KAI1 081712Z 27021G28KT 17/04 A2988 RMK A01 T01680043  RH  043%=      5-min Rain = 0
KAI1 081713Z 27021KT 17/04 A2988 RMK A01 T01690043  RH  043%=      5-min Rain = 0
KAI1 081714Z 27019KT 17/04 A2988 RMK A01 T01690043  RH  043%=      5-min Rain = 0
KAI1 081715Z 27017G22KT 17/04 A2988 RMK A01 T01700044  RH  043%=      5-min Rain = 0
KAI1 081716Z 27020G25KT 17/04 A2988 RMK A01 T01710043  RH  043%=      5-min Rain = 0
KAI1 081717Z 27022KT 17/04 A2988 RMK A01 T01710042  RH  042%=      5-min Rain = 0
KAI1 081718Z 26022G30KT 17/04 A2987 RMK A01 T01710042  RH  042%=      5-min Rain = 0
KAI1 081719Z 26021KT 17/04 A2988 RMK A01 T01720043  RH  042%=      5-min Rain = 0
KAI1 081720Z 26018KT 17/04 A2988 RMK A01 T01730043  RH  042%=      5-min Rain = 0
KAI1 081721Z 27019G24KT 18/04 A2987 RMK A01 T01750044  RH  042%=      5-min Rain = 0
KAI1 081722Z 27018G24KT 18/04 A2987 RMK A01 T01760044  RH  042%=      5-min Rain = 0
KAI1 081723Z 27018G24KT 18/04 A2987 RMK A01 T01760044  RH  042%=      5-min Rain = 0
KAI1 081724Z 27022KT 18/04 A2987 RMK A01 T01760044  RH  041%=      5-min Rain = 0
KAI1 081725Z 26022KT 18/04 A2987 RMK A01 T01760043  RH  041%=      5-min Rain = 0
KAI1 081726Z 26023G28KT 18/04 A2987 RMK A01 T01750043  RH  041%=      5-min Rain = 0
KAI1 081727Z 27020G28KT 18/04 A2987 RMK A01 T01750043  RH  041%=      5-min Rain = 0
KAI1 081728Z 26021KT 18/04 A2987 RMK A01 T01760043  RH  041%=      5-min Rain = 0
KAI1 081729Z 26022G27KT 18/04 A2987 RMK A01 T01770043  RH  041%=      5-min Rain = 0
KAI1 081730Z 27023KT 18/04 A2987 RMK A01 T01770043  RH  041%=      5-min Rain = 0
KAI1 081731Z 27018G23KT 18/04 A2987 RMK A01 T01770043  RH  041%=      5-min Rain = 0
KAI1 081732Z 26021KT 18/04 A2987 RMK A01 T01790044  RH  041%=      5-min Rain = 0
KAI1 081733Z 27019KT 18/04 A2987 RMK A01 T01790044  RH  041%=      5-min Rain = 0
KAI1 081734Z 27022KT 18/04 A2987 RMK A01 T01810044  RH  040%=      5-min Rain = 0
KAI1 081735Z 27023KT 18/04 A2987 RMK A01 T01820043  RH  040%=      5-min Rain = 0
KAI1 081736Z 27023KT 18/04 A2987 RMK A01 T01820043  RH  040%=      5-min Rain = 0
KAI1 081737Z 27021KT 18/04 A2987 RMK A01 T01810043  RH  040%=      5-min Rain = 0
KAI1 081738Z 27023KT 18/04 A2987 RMK A01 T01810043  RH  040%=      5-min Rain = 0
KAI1 081739Z 27021G26KT 18/04 A2986 RMK A01 T01810043  RH  040%=      5-min Rain = 0
KAI1 081740Z 26023KT 18/04 A2986 RMK A01 T01800043  RH  040%=      5-min Rain = 0
KAI1 081741Z 27023KT 18/04 A2986 RMK A01 T01800043  RH  040%=      5-min Rain = 0
KAI1 081742Z 27023G28KT 18/04 A2986 RMK A01 T01800042  RH  040%=      5-min Rain = 0
KAI1 081743Z 26021KT 18/04 A2986 RMK A01 T01800042  RH  040%=      5-min Rain = 0
KAI1 081744Z 26018KT 18/04 A2986 RMK A01 T01810044  RH  040%=      5-min Rain = 0
KAI1 081745Z 26017G22KT 18/04 A2986 RMK A01 T01820044  RH  040%=      5-min Rain = 0
KAI1 081746Z 26018KT 18/05 A2986 RMK A01 T01830045  RH  040%=      5-min Rain = 0
KAI1 081747Z 26017KT 18/04 A2986 RMK A01 T01840044  RH  040%=      5-min Rain = 0
KAI1 081748Z 27020KT 19/04 A2986 RMK A01 T01850044  RH  039%=      5-min Rain = 0
KAI1 081749Z 27025KT 19/04 A2986 RMK A01 T01850042  RH  039%=      5-min Rain = 0
KAI1 081750Z 26024G29KT 19/04 A2986 RMK A01 T01850042  RH  039%=      5-min Rain = 0
KAI1 081751Z 27023G28KT 19/04 A2986 RMK A01 T01860042  RH  039%=      5-min Rain = 0
KAI1 081752Z 26019KT 19/04 A2986 RMK A01 T01870043  RH  038%=      5-min Rain = 0
KAI1 081753Z 26021KT 19/04 A2986 RMK A01 T01880043  RH  038%=      5-min Rain = 0
KAI1 081754Z 27019G24KT 19/04 A2986 RMK A01 T01900044  RH  038%=      5-min Rain = 0
KAI1 081755Z 26020KT 19/04 A2985 RMK A01 T01910044  RH  038%=      5-min Rain = 0
KAI1 081756Z 27024KT 19/04 A2985 RMK A01 T01910043  RH  038%=      5-min Rain = 0
KAI1 081757Z 26026G32KT 19/04 A2985 RMK A01 T01900041  RH  037%=      5-min Rain = 0
KAI1 081758Z 26024G29KT 19/04 A2985 RMK A01 T01890040  RH  037%=      5-min Rain = 0
KAI1 081759Z 26027KT 19/04 A2985 RMK A01 T01890040  RH  037%=      5-min Rain = 0
KAI1 081800Z 26027KT 19/04 A2985 RMK A01 T01870038  RH  037%=      5-min Rain = 0
KAI1 081801Z 26022KT 19/04 A2985 RMK A01 T01850039  RH  038%=      5-min Rain = 0
KAI1 081802Z 25024G32KT 19/04 A2985 RMK A01 T01850040  RH  038%=      5-min Rain = 0
KAI1 081803Z 26023G29KT 19/04 A2985 RMK A01 T01850040  RH  038%=      5-min Rain = 0
KAI1 081804Z 26025G30KT 19/04 A2985 RMK A01 T01850039  RH  038%=      5-min Rain = 0
KAI1 081805Z 26026G31KT 19/04 A2985 RMK A01 T01860039  RH  038%=      5-min Rain = 0
KAI1 081806Z 26025KT 19/04 A2984 RMK A01 T01870040  RH  038%=      5-min Rain = 0
KAI1 081807Z 26020G27KT 19/04 A2984 RMK A01 T01880041  RH  038%=      5-min Rain = 0
KAI1 081808Z 26021G29KT 19/04 A2985 RMK A01 T01910043  RH  038%=      5-min Rain = 0
KAI1 081809Z 25025KT 19/04 A2984 RMK A01 T01920042  RH  037%=      5-min Rain = 0
KAI1 081810Z 25024KT 19/04 A2984 RMK A01 T01920042  RH  037%=      5-min Rain = 0
KAI1 081811Z 25023G28KT 19/04 A2984 RMK A01 T01910042  RH  037%=      5-min Rain = 0
KAI1 081812Z 25023KT 19/04 A2984 RMK A01 T01900041  RH  037%=      5-min Rain = 0
KAI1 081813Z 26024G29KT 19/04 A2984 RMK A01 T01900042  RH  038%=      5-min Rain = 0
KAI1 081814Z 25022KT 19/04 A2984 RMK A01 T01890042  RH  038%=      5-min Rain = 0
KAI1 081815Z 25024KT 19/04 A2984 RMK A01 T01900042  RH  038%=      5-min Rain = 0
KAI1 081816Z 25024KT 19/04 A2984 RMK A01 T01890041  RH  038%=      5-min Rain = 0
KAI1 081817Z 26025KT 19/04 A2983 RMK A01 T01890041  RH  038%=      5-min Rain = 0
KAI1 081818Z 26021KT 19/04 A2983 RMK A01 T01880041  RH  038%=      5-min Rain = 0
KAI1 081819Z 25021KT 19/04 A2984 RMK A01 T01880042  RH  038%=      5-min Rain = 0
KAI1 081820Z 26021KT 19/04 A2984 RMK A01 T01880041  RH  038%=      5-min Rain = 0
KAI1 081821Z 25021G27KT 19/04 A2984 RMK A01 T01880040  RH  038%=      5-min Rain = 0
KAI1 081822Z 26024KT 19/04 A2983 RMK A01 T01880040  RH  038%=      5-min Rain = 0
KAI1 081823Z 26019G24KT 19/04 A2984 RMK A01 T01890041  RH  038%=      5-min Rain = 0
KAI1 081824Z 25023KT 19/04 A2983 RMK A01 T01910042  RH  037%=      5-min Rain = 0
KAI1 081825Z 26020G26KT 19/04 A2983 RMK A01 T01910041  RH  037%=      5-min Rain = 0
KAI1 081826Z 25021G30KT 19/04 A2983 RMK A01 T01910041  RH  037%=      5-min Rain = 0
KAI1 081827Z 26024KT 19/04 A2983 RMK A01 T01920041  RH  037%=      5-min Rain = 0
KAI1 081828Z 26022KT 19/04 A2983 RMK A01 T01910040  RH  037%=      5-min Rain = 0
KAI1 081829Z 26022KT 19/04 A2983 RMK A01 T01920042  RH  037%=      5-min Rain = 0
KAI1 081830Z 26023G28KT 19/04 A2983 RMK A01 T01930042  RH  037%=      5-min Rain = 0
KAI1 081831Z 25020G26KT 19/04 A2983 RMK A01 T01940040  RH  036%=      5-min Rain = 0
KAI1 081832Z 26022G27KT 20/04 A2983 RMK A01 T01950041  RH  036%=      5-min Rain = 0
KAI1 081833Z 25025KT 20/04 A2982 RMK A01 T01950039  RH  036%=      5-min Rain = 0
KAI1 081834Z 26025KT 20/04 A2982 RMK A01 T01950038  RH  035%=      5-min Rain = 0
KAI1 081835Z 26025KT 20/04 A2982 RMK A01 T01950038  RH  035%=      5-min Rain = 0
KAI1 081836Z 26021KT 19/04 A2983 RMK A01 T01940038  RH  036%=      5-min Rain = 0
KAI1 081837Z 25023G28KT 20/04 A2982 RMK A01 T01960040  RH  036%=      5-min Rain = 0
KAI1 081838Z 25018KT 20/04 A2983 RMK A01 T01970041  RH  036%=      5-min Rain = 0
KAI1 081839Z 26022G28KT 20/04 A2982 RMK A01 T01990041  RH  035%=      5-min Rain = 0
KAI1 081840Z 26025KT 20/04 A2982 RMK A01 T01990038  RH  035%=      5-min Rain = 0
KAI1 081841Z 25021G29KT 20/04 A2982 RMK A01 T01970039  RH  035%=      5-min Rain = 0
KAI1 081842Z 25026KT 20/04 A2982 RMK A01 T01970039  RH  035%=      5-min Rain = 0
KAI1 081843Z 25025KT 20/04 A2982 RMK A01 T01960038  RH  035%=      5-min Rain = 0
KAI1 081844Z 25027KT 20/04 A2982 RMK A01 T01960039  RH  036%=      5-min Rain = 0
KAI1 081845Z 25029KT 20/04 A2981 RMK A01 T01960039  RH  035%=      5-min Rain = 0
KAI1 081846Z 25028G34KT 20/04 A2981 RMK A01 T01960038  RH  035%=      5-min Rain = 0
KAI1 081847Z 25025G30KT 20/04 A2981 RMK A01 T01960038  RH  035%=      5-min Rain = 0
KAI1 081848Z 25028G36KT 20/04 A2981 RMK A01 T01960038  RH  035%=      5-min Rain = 0
KAI1 081849Z 25027G33KT 20/04 A2981 RMK A01 T01960037  RH  035%=      5-min Rain = 0
KAI1 081850Z 25030KT 20/04 A2981 RMK A01 T01960037  RH  035%=      5-min Rain = 0
KAI1 081851Z 26027G34KT 20/04 A2981 RMK A01 T01950037  RH  035%=      5-min Rain = 0
KAI1 081852Z 25024KT 20/04 A2982 RMK A01 T01950038  RH  035%=      5-min Rain = 0
KAI1 081853Z 25025G30KT 20/04 A2981 RMK A01 T01960038  RH  035%=      5-min Rain = 0
KAI1 081854Z 26027G33KT 20/04 A2981 RMK A01 T01960038  RH  035%=      5-min Rain = 0
KAI1 081855Z 25027G34KT 20/04 A2981 RMK A01 T01950038  RH  035%=      5-min Rain = 0
KAI1 081856Z 25019G28KT 19/04 A2981 RMK A01 T01940038  RH  036%=      5-min Rain = 0
KAI1 081857Z 25025G30KT 20/04 A2981 RMK A01 T01950039  RH  036%=      5-min Rain = 0
KAI1 081858Z 26026KT 20/04 A2981 RMK A01 T01950038  RH  035%=      5-min Rain = 0
KAI1 081859Z 25025G30KT 20/04 A2981 RMK A01 T01950039  RH  036%=      5-min Rain = 0
KAI1 081900Z 25027KT 20/04 A2981 RMK A01 T01960038  RH  035%=      5-min Rain = 0
KAI1 081901Z 25027G34KT 20/04 A2981 RMK A01 T01970038  RH  035%=      5-min Rain = 0
KAI1 081902Z 26021KT 20/04 A2981 RMK A01 T01980039  RH  035%=      5-min Rain = 0
KAI1 081903Z 25023KT 20/04 A2981 RMK A01 T02000040  RH  035%=      5-min Rain = 0
KAI1 081904Z 25025KT 20/04 A2981 RMK A01 T02000041  RH  035%=      5-min Rain = 0
KAI1 081905Z 25020G26KT 20/04 A2981 RMK A01 T02010040  RH  035%=      5-min Rain = 0
KAI1 081906Z 25027G32KT 20/04 A2981 RMK A01 T02020041  RH  035%=      5-min Rain = 0
KAI1 081907Z 25028KT 20/04 A2981 RMK A01 T02010038  RH  034%=      5-min Rain = 0
KAI1 081908Z 25026KT 20/04 A2981 RMK A01 T02000037  RH  034%=      5-min Rain = 0
KAI1 081909Z 24030G36KT 20/04 A298 RMK A01 T02010037  RH  034%=      5-min Rain = 0
KAI1 081910Z 25026G31KT 20/04 A2981 RMK A01 T02010035  RH  034%=      5-min Rain = 0
KAI1 081911Z 25025G34KT 20/04 A2981 RMK A01 T02010036  RH  034%=      5-min Rain = 0
KAI1 081912Z 26025G30KT 20/04 A2981 RMK A01 T02020035  RH  033%=      5-min Rain = 0
KAI1 081913Z 26024G30KT 20/04 A2981 RMK A01 T02030036  RH  033%=      5-min Rain = 0
KAI1 081914Z 25028G35KT 20/04 A2981 RMK A01 T02040036  RH  033%=      5-min Rain = 0
KAI1 081915Z 25029KT 20/03 A2981 RMK A01 T02040034  RH  033%=      5-min Rain = 0
KAI1 081916Z 26027KT 20/03 A2981 RMK A01 T02030034  RH  033%=      5-min Rain = 0
KAI1 081917Z 26025G32KT 20/03 A2981 RMK A01 T02030033  RH  033%=      5-min Rain = 0
KAI1 081918Z 26029G35KT 20/03 A298 RMK A01 T02030033  RH  033%=      5-min Rain = 0
KAI1 081919Z 26026KT 20/03 A2981 RMK A01 T02020033  RH  033%=      5-min Rain = 0
KAI1 081920Z 26027G35KT 20/03 A2981 RMK A01 T02020034  RH  033%=      5-min Rain = 0
KAI1 081921Z 26029KT 20/03 A2981 RMK A01 T02020034  RH  033%=      5-min Rain = 0
KAI1 081922Z 26027G32KT 20/03 A2981 RMK A01 T02020033  RH  033%=      5-min Rain = 0
KAI1 081923Z 25025KT 20/03 A2981 RMK A01 T02020034  RH  033%=      5-min Rain = 0
KAI1 081924Z 26028G33KT 20/03 A2981 RMK A01 T02020034  RH  033%=      5-min Rain = 0
KAI1 081925Z 26027KT 20/03 A2981 RMK A01 T02020034  RH  033%=      5-min Rain = 0
KAI1 081926Z 26026KT 20/04 A2981 RMK A01 T02020035  RH  033%=      5-min Rain = 0
KAI1 081927Z 25025G30KT 20/04 A2981 RMK A01 T02020035  RH  033%=      5-min Rain = 0
KAI1 081928Z 25029G36KT 20/04 A298 RMK A01 T02030035  RH  033%=      5-min Rain = 0
KAI1 081929Z 26029KT 20/03 A2981 RMK A01 T02030034  RH  033%=      5-min Rain = 0
KAI1 081930Z 26030G37KT 20/04 A298 RMK A01 T02020035  RH  033%=      5-min Rain = 0
KAI1 081931Z 25027G32KT 20/04 A298 RMK A01 T02020036  RH  033%=      5-min Rain = 0
KAI1 081932Z 26027G32KT 20/04 A298 RMK A01 T02020036  RH  033%=      5-min Rain = 0
KAI1 081933Z 26026G31KT 20/04 A298 RMK A01 T02020037  RH  033%=      5-min Rain = 0
KAI1 081934Z 26028KT 20/04 A298 RMK A01 T02040037  RH  033%=      5-min Rain = 0
KAI1 081935Z 25024G31KT 20/04 A298 RMK A01 T02040037  RH  033%=      5-min Rain = 0
KAI1 081936Z 25022G27KT 21/04 A298 RMK A01 T02050038  RH  033%=      5-min Rain = 0
KAI1 081937Z 26028G34KT 21/04 A298 RMK A01 T02060038  RH  033%=      5-min Rain = 0
KAI1 081938Z 25027G34KT 21/04 A298 RMK A01 T02050037  RH  033%=      5-min Rain = 0
KAI1 081939Z 26028KT 20/04 A298 RMK A01 T02040038  RH  033%=      5-min Rain = 0
KAI1 081940Z 26023KT 20/04 A298 RMK A01 T02040039  RH  034%=      5-min Rain = 0
KAI1 081941Z 26026G31KT 21/04 A298 RMK A01 T02050039  RH  034%=      5-min Rain = 0
KAI1 081942Z 26025G30KT 21/04 A298 RMK A01 T02050039  RH  033%=      5-min Rain = 0
KAI1 081943Z 26023G28KT 21/04 A298 RMK A01 T02050039  RH  033%=      5-min Rain = 0
KAI1 081944Z 27025KT 21/04 A2979 RMK A01 T02060040  RH  033%=      5-min Rain = 0
KAI1 081945Z 27023KT 21/04 A298 RMK A01 T02060040  RH  034%=      5-min Rain = 0
KAI1 081946Z 26021G26KT 21/04 A298 RMK A01 T02060040  RH  034%=      5-min Rain = 0
KAI1 081947Z 25022KT 21/04 A298 RMK A01 T02080042  RH  034%=      5-min Rain = 0
KAI1 081948Z 25023KT 21/04 A298 RMK A01 T02090042  RH  033%=      5-min Rain = 0
KAI1 081949Z 25021G27KT 21/04 A298 RMK A01 T02090042  RH  033%=      5-min Rain = 0
KAI1 081950Z 25024G30KT 21/04 A298 RMK A01 T02100041  RH  033%=      5-min Rain = 0
KAI1 081951Z 25024KT 21/04 A2979 RMK A01 T02100040  RH  033%=      5-min Rain = 0
KAI1 081952Z 26022KT 21/04 A2979 RMK A01 T02100039  RH  032%=      5-min Rain = 0
KAI1 081953Z 26022G27KT 21/04 A2979 RMK A01 T02100039  RH  032%=      5-min Rain = 0
KAI1 081954Z 25021KT 21/04 A2979 RMK A01 T02100039  RH  032%=      5-min Rain = 0
KAI1 081955Z 26023KT 21/04 A2979 RMK A01 T02110040  RH  032%=      5-min Rain = 0
KAI1 081956Z 25017G22KT 21/04 A298 RMK A01 T02110040  RH  033%=      5-min Rain = 0
KAI1 081957Z 26022G28KT 21/04 A2979 RMK A01 T02120040  RH  032%=      5-min Rain = 0
KAI1 081958Z 26023G28KT 21/04 A2979 RMK A01 T02120038  RH  032%=      5-min Rain = 0
KAI1 081959Z 26027KT 21/04 A2979 RMK A01 T02110037  RH  032%=      5-min Rain = 0
KAI1 082000Z 26025KT 21/04 A2979 RMK A01 T02100037  RH  032%=      5-min Rain = 0
KAI1 082001Z 26021G26KT 21/04 A2979 RMK A01 T02090037  RH  032%=      5-min Rain = 0
KAI1 082002Z 26021G26KT 21/04 A2979 RMK A01 T02090038  RH  033%=      5-min Rain = 0
KAI1 082003Z 26023G28KT 21/04 A2979 RMK A01 T02100039  RH  033%=      5-min Rain = 0
KAI1 082004Z 25025G34KT 21/04 A2979 RMK A01 T02110038  RH  032%=      5-min Rain = 0
KAI1 082005Z 25026G32KT 21/04 A2978 RMK A01 T02110037  RH  032%=      5-min Rain = 0
KAI1 082006Z 26024KT 21/04 A2979 RMK A01 T02100037  RH  032%=      5-min Rain = 0
KAI1 082007Z 25022G27KT 21/04 A2979 RMK A01 T02100037  RH  032%=      5-min Rain = 0
KAI1 082008Z 25023KT 21/04 A2978 RMK A01 T02110038  RH  032%=      5-min Rain = 0
KAI1 082009Z 25020KT 21/04 A2979 RMK A01 T02120039  RH  032%=      5-min Rain = 0
KAI1 082010Z 25024G29KT 21/04 A2979 RMK A01 T02130039  RH  032%=      5-min Rain = 0
KAI1 082011Z 25024KT 21/04 A2978 RMK A01 T02130038  RH  032%=      5-min Rain = 0
KAI1 082012Z 25025G30KT 21/04 A2978 RMK A01 T02130038  RH  032%=      5-min Rain = 0
KAI1 082013Z 25028G33KT 21/04 A2978 RMK A01 T02130038  RH  032%=      5-min Rain = 0
KAI1 082014Z 25023G32KT 21/04 A2978 RMK A01 T02140038  RH  032%=      5-min Rain = 0
KAI1 082015Z 25028G33KT 22/04 A2978 RMK A01 T02150038  RH  031%=      5-min Rain = 0
KAI1 082016Z 25026G31KT 22/04 A2978 RMK A01 T02160038  RH  031%=      5-min Rain = 0
KAI1 082017Z 25026KT 22/04 A2978 RMK A01 T02170039  RH  031%=      5-min Rain = 0
KAI1 082018Z 25027G34KT 22/04 A2978 RMK A01 T02160038  RH  031%=      5-min Rain = 0
KAI1 082019Z 26026KT 22/04 A2978 RMK A01 T02160038  RH  031%=      5-min Rain = 0
KAI1 082020Z 26024KT 22/04 A2978 RMK A01 T02160039  RH  031%=      5-min Rain = 0
KAI1 082021Z 26023G28KT 22/04 A2978 RMK A01 T02180040  RH  031%=      5-min Rain = 0
KAI1 082022Z 26029G36KT 22/04 A2978 RMK A01 T02190040  RH  031%=      5-min Rain = 0
KAI1 082023Z 26030G35KT 22/04 A2978 RMK A01 T02170037  RH  031%=      5-min Rain = 0
KAI1 082024Z 26028KT 22/04 A2978 RMK A01 T02150037  RH  031%=      5-min Rain = 0
KAI1 082025Z 26030G35KT 21/04 A2978 RMK A01 T02140037  RH  031%=      5-min Rain = 0
KAI1 082026Z 26025G31KT 21/04 A2978 RMK A01 T02140038  RH  032%=      5-min Rain = 0
KAI1 082027Z 26025KT 21/04 A2978 RMK A01 T02130038  RH  032%=      5-min Rain = 0
KAI1 082028Z 25027KT 21/04 A2978 RMK A01 T02130037  RH  031%=      5-min Rain = 0
KAI1 082029Z 26022G28KT 21/04 A2978 RMK A01 T02130038  RH  032%=      5-min Rain = 0
KAI1 082030Z 26024KT 21/04 A2978 RMK A01 T02140039  RH  032%=      5-min Rain = 0
KAI1 082031Z 26027G34KT 22/04 A2978 RMK A01 T02150039  RH  032%=      5-min Rain = 0
KAI1 082032Z 26023KT 22/04 A2979 RMK A01 T02150039  RH  031%=      5-min Rain = 0
KAI1 082033Z 26025G35KT 22/04 A2978 RMK A01 T02160040  RH  032%=      5-min Rain = 0
KAI1 082034Z 27030G36KT 22/04 A2978 RMK A01 T02150038  RH  031%=      5-min Rain = 0
KAI1 082035Z 26022G28KT 21/04 A2978 RMK A01 T02140038  RH  031%=      5-min Rain = 0
KAI1 082036Z 26027G32KT 21/04 A2978 RMK A01 T02140039  RH  032%=      5-min Rain = 0
KAI1 082037Z 26027G36KT 21/04 A2978 RMK A01 T02140038  RH  032%=      5-min Rain = 0
KAI1 082038Z 27029KT 21/04 A2978 RMK A01 T02130038  RH  032%=      5-min Rain = 0
KAI1 082039Z 27024G29KT 21/04 A2978 RMK A01 T02130038  RH  032%=      5-min Rain = 0
KAI1 082040Z 26025KT 21/04 A2978 RMK A01 T02140039  RH  032%=      5-min Rain = 0
KAI1 082041Z 26032G38KT 22/04 A2977 RMK A01 T02150039  RH  031%=      5-min Rain = 0
KAI1 082042Z 27029G34KT 21/04 A2978 RMK A01 T02140038  RH  031%=      5-min Rain = 0
KAI1 082043Z 27026G31KT 21/04 A2978 RMK A01 T02140039  RH  032%=      5-min Rain = 0
KAI1 082044Z 26024G31KT 22/04 A2978 RMK A01 T02150040  RH  032%=      5-min Rain = 0
KAI1 082045Z 26026G31KT 22/04 A2978 RMK A01 T02160040  RH  032%=      5-min Rain = 0
KAI1 082046Z 26024G30KT 22/04 A2978 RMK A01 T02170041  RH  031%=      5-min Rain = 0
KAI1 082047Z 26026KT 22/04 A2978 RMK A01 T02170041  RH  031%=      5-min Rain = 0
KAI1 082048Z 26027G33KT 22/04 A2978 RMK A01 T02180041  RH  031%=      5-min Rain = 0
KAI1 082049Z 27031KT 22/04 A2978 RMK A01 T02170041  RH  031%=      5-min Rain = 0
KAI1 082050Z 27026G31KT 22/04 A2978 RMK A01 T02170041  RH  032%=      5-min Rain = 0
KAI1 082051Z 26023G30KT 22/04 A2978 RMK A01 T02170042  RH  032%=      5-min Rain = 0
KAI1 082052Z 26029G35KT 22/04 A2978 RMK A01 T02190043  RH  032%=      5-min Rain = 0
KAI1 082053Z 26033G39KT 22/04 A2977 RMK A01 T02180042  RH  032%=      5-min Rain = 0
KAI1 082054Z 26028G34KT 22/04 A2977 RMK A01 T02150042  RH  032%=      5-min Rain = 0
KAI1 082055Z 25025KT 22/04 A2977 RMK A01 T02150043  RH  032%=      5-min Rain = 0
KAI1 082056Z 25030G36KT 22/04 A2977 RMK A01 T02150043  RH  032%=      5-min Rain = 0
KAI1 082057Z 26030G36KT 22/04 A2977 RMK A01 T02150043  RH  032%=      5-min Rain = 0
KAI1 082058Z 26030G35KT 21/04 A2977 RMK A01 T02140043  RH  033%=      5-min Rain = 0
KAI1 082059Z 25030G38KT 21/04 A2977 RMK A01 T02140043  RH  033%=      5-min Rain = 0
KAI1 082100Z 25031G37KT 21/04 A2977 RMK A01 T02130044  RH  033%=      5-min Rain = 0
KAI1 082101Z 26030KT 21/04 A2977 RMK A01 T02120043  RH  033%=      5-min Rain = 0
KAI1 082102Z 26032G37KT 21/04 A2977 RMK A01 T02110043  RH  033%=      5-min Rain = 0
KAI1 082103Z 26026G33KT 21/04 A2977 RMK A01 T02110044  RH  033%=      5-min Rain = 0
KAI1 082104Z 26025KT 21/05 A2977 RMK A01 T02110045  RH  034%=      5-min Rain = 0
KAI1 082105Z 26025G33KT 21/05 A2977 RMK A01 T02130045  RH  033%=      5-min Rain = 0
KAI1 082106Z 26032KT 21/05 A2977 RMK A01 T02130045  RH  033%=      5-min Rain = 0
KAI1 082107Z 26028KT 21/05 A2977 RMK A01 T02130045  RH  033%=      5-min Rain = 0
KAI1 082108Z 26027G32KT 21/05 A2977 RMK A01 T02130045  RH  033%=      5-min Rain = 0
KAI1 082109Z 26028G33KT 21/05 A2977 RMK A01 T02130045  RH  033%=      5-min Rain = 0
KAI1 082110Z 26027G33KT 21/05 A2977 RMK A01 T02120045  RH  033%=      5-min Rain = 0
KAI1 082111Z 26024G29KT 21/04 A2977 RMK A01 T02110044  RH  034%=      5-min Rain = 0
KAI1 082112Z 26027G32KT 21/04 A2977 RMK A01 T02100044  RH  034%=      5-min Rain = 0
KAI1 082113Z 26028KT 21/04 A2977 RMK A01 T02100044  RH  034%=      5-min Rain = 0
KAI1 082114Z 27030G36KT 21/04 A2977 RMK A01 T02090042  RH  033%=      5-min Rain = 0
KAI1 082115Z 27031G39KT 21/04 A2977 RMK A01 T02080041  RH  033%=      5-min Rain = 0
KAI1 082116Z 26030KT 21/04 A2977 RMK A01 T02080041  RH  033%=      5-min Rain = 0
KAI1 082117Z 26023G28KT 21/04 A2977 RMK A01 T02070042  RH  034%=      5-min Rain = 0
KAI1 082118Z 26024KT 21/04 A2977 RMK A01 T02070042  RH  034%=      5-min Rain = 0
KAI1 082119Z 26024G30KT 21/04 A2977 RMK A01 T02080043  RH  034%=      5-min Rain = 0
KAI1 082120Z 25026G31KT 21/04 A2977 RMK A01 T02090044  RH  034%=      5-min Rain = 0
KAI1 082121Z 25025KT 21/05 A2977 RMK A01 T02080045  RH  034%=      5-min Rain = 0
KAI1 082122Z 25025G30KT 21/05 A2977 RMK A01 T02070045  RH  034%=      5-min Rain = 0
KAI1 082123Z 25025G32KT 21/05 A2977 RMK A01 T02070045  RH  035%=      5-min Rain = 0
KAI1 082124Z 26030G36KT 21/05 A2977 RMK A01 T02060045  RH  035%=      5-min Rain = 0
KAI1 082125Z 25025G35KT 21/04 A2977 RMK A01 T02060044  RH  035%=      5-min Rain = 0
KAI1 082126Z 25026KT 21/05 A2977 RMK A01 T02060045  RH  035%=      5-min Rain = 0
KAI1 082127Z 25028KT 21/04 A2977 RMK A01 T02060044  RH  035%=      5-min Rain = 0
KAI1 082128Z 25024G33KT 21/05 A2977 RMK A01 T02060045  RH  035%=      5-min Rain = 0
KAI1 082129Z 25029G37KT 21/05 A2977 RMK A01 T02060045  RH  035%=      5-min Rain = 0
KAI1 082130Z 25026G31KT 21/04 A2977 RMK A01 T02060044  RH  035%=      5-min Rain = 0
KAI1 082131Z 25026KT 21/05 A2977 RMK A01 T02060045  RH  035%=      5-min Rain = 0
KAI1 082132Z 25029KT 21/05 A2977 RMK A01 T02050045  RH  035%=      5-min Rain = 0
KAI1 082133Z 25029G38KT 21/04 A2977 RMK A01 T02050044  RH  035%=      5-min Rain = 0
KAI1 082134Z 25030G36KT 21/04 A2977 RMK A01 T02050043  RH  034%=      5-min Rain = 0
KAI1 082135Z 25030G35KT 21/04 A2977 RMK A01 T02050043  RH  034%=      5-min Rain = 0
KAI1 082136Z 26028G35KT 21/04 A2977 RMK A01 T02050043  RH  034%=      5-min Rain = 0
KAI1 082137Z 26033G40KT 20/04 A2977 RMK A01 T02040042  RH  034%=      5-min Rain = 0
KAI1 082138Z 26025G34KT 20/04 A2977 RMK A01 T02040042  RH  034%=      5-min Rain = 0
KAI1 082139Z 26028G37KT 20/04 A2977 RMK A01 T02040042  RH  034%=      5-min Rain = 0
KAI1 082140Z 26030KT 20/04 A2977 RMK A01 T02040042  RH  034%=      5-min Rain = 0
KAI1 082141Z 26025G30KT 20/04 A2977 RMK A01 T02040042  RH  035%=      5-min Rain = 0
KAI1 082142Z 26024G30KT 20/04 A2977 RMK A01 T02030043  RH  035%=      5-min Rain = 0
KAI1 082143Z 26028KT 20/04 A2977 RMK A01 T02030042  RH  035%=      5-min Rain = 0
KAI1 082144Z 25030KT 20/04 A2977 RMK A01 T02030041  RH  034%=      5-min Rain = 0
KAI1 082145Z 26026KT 20/04 A2977 RMK A01 T02030041  RH  034%=      5-min Rain = 0
KAI1 082146Z 26027KT 20/04 A2977 RMK A01 T02030041  RH  035%=      5-min Rain = 0
KAI1 082147Z 26025G31KT 20/04 A2976 RMK A01 T02020041  RH  035%=      5-min Rain = 0
KAI1 082148Z 26022G28KT 20/04 A2976 RMK A01 T02020041  RH  035%=      5-min Rain = 0
KAI1 082149Z 26025G30KT 20/04 A2976 RMK A01 T02020042  RH  035%=      5-min Rain = 0
KAI1 082150Z 26023G30KT 20/04 A2976 RMK A01 T02010042  RH  035%=      5-min Rain = 0
KAI1 082151Z 26020G26KT 20/04 A2976 RMK A01 T02010042  RH  035%=      5-min Rain = 0
KAI1 082152Z 25020G25KT 20/04 A2976 RMK A01 T02000042  RH  035%=      5-min Rain = 0
KAI1 082153Z 25025G31KT 20/04 A2976 RMK A01 T02000043  RH  035%=      5-min Rain = 0
KAI1 082154Z 26023G32KT 20/04 A2976 RMK A01 T02000042  RH  035%=      5-min Rain = 0
KAI1 082155Z 25025KT 20/04 A2976 RMK A01 T02000042  RH  035%=      5-min Rain = 0
KAI1 082156Z 25022KT 20/04 A2977 RMK A01 T02000042  RH  035%=      5-min Rain = 0
KAI1 082157Z 26026KT 20/04 A2976 RMK A01 T02000043  RH  036%=      5-min Rain = 0
KAI1 082158Z 26029KT 20/04 A2976 RMK A01 T01990043  RH  036%=      5-min Rain = 0
KAI1 082159Z 26024KT 20/04 A2976 RMK A01 T01990043  RH  036%=      5-min Rain = 0
KAI1 082200Z 25024KT 20/04 A2977 RMK A01 T02000044  RH  036%=      5-min Rain = 0
KAI1 082201Z 26023G29KT 20/04 A2977 RMK A01 T01990044  RH  036%=      5-min Rain = 0
KAI1 082202Z 25023G31KT 20/05 A2977 RMK A01 T02000045  RH  036%=      5-min Rain = 0
KAI1 082203Z 25023G31KT 20/04 A2977 RMK A01 T01990044  RH  036%=      5-min Rain = 0
KAI1 082204Z 25021G26KT 20/05 A2977 RMK A01 T01990045  RH  036%=      5-min Rain = 0
KAI1 082205Z 25021G26KT 20/05 A2977 RMK A01 T01990046  RH  037%=      5-min Rain = 0
KAI1 082206Z 25022KT 20/05 A2976 RMK A01 T01980046  RH  037%=      5-min Rain = 0
KAI1 082207Z 26021G26KT 20/05 A2977 RMK A01 T01980046  RH  037%=      5-min Rain = 0
KAI1 082208Z 25021G26KT 20/05 A2977 RMK A01 T01990046  RH  037%=      5-min Rain = 0
KAI1 082209Z 25021G26KT 20/05 A2977 RMK A01 T01990046  RH  037%=      5-min Rain = 0
KAI1 082210Z 25022KT 20/05 A2977 RMK A01 T01990046  RH  037%=      5-min Rain = 0
KAI1 082211Z 26024G29KT 20/05 A2977 RMK A01 T01990046  RH  037%=      5-min Rain = 0
KAI1 082212Z 25021G26KT 20/05 A2977 RMK A01 T01990046  RH  037%=      5-min Rain = 0
KAI1 082213Z 26023KT 20/05 A2977 RMK A01 T01990046  RH  037%=      5-min Rain = 0
KAI1 082214Z 25021KT 20/05 A2977 RMK A01 T01980046  RH  037%=      5-min Rain = 0
KAI1 082215Z 25022KT 20/05 A2977 RMK A01 T01990047  RH  037%=      5-min Rain = 0
KAI1 082216Z 25022KT 20/05 A2977 RMK A01 T01980046  RH  037%=      5-min Rain = 0
KAI1 082217Z 25023G29KT 20/05 A2977 RMK A01 T01990046  RH  037%=      5-min Rain = 0
KAI1 082218Z 25024KT 20/05 A2977 RMK A01 T01990046  RH  037%=      5-min Rain = 0
KAI1 082219Z 25025KT 20/05 A2977 RMK A01 T01980046  RH  037%=      5-min Rain = 0
KAI1 082220Z 25021KT 20/05 A2978 RMK A01 T01990046  RH  037%=      5-min Rain = 0
KAI1 082221Z 25022KT 20/05 A2978 RMK A01 T01990046  RH  037%=      5-min Rain = 0
KAI1 082222Z 25024KT 20/05 A2978 RMK A01 T01980046  RH  037%=      5-min Rain = 0
KAI1 082223Z 25022G29KT 20/05 A2978 RMK A01 T01980046  RH  037%=      5-min Rain = 0
KAI1 082224Z 26022G28KT 20/05 A2978 RMK A01 T01980045  RH  037%=      5-min Rain = 0
KAI1 082225Z 26022KT 20/05 A2978 RMK A01 T01980046  RH  037%=      5-min Rain = 0
KAI1 082226Z 26022G29KT 20/05 A2977 RMK A01 T01980046  RH  037%=      5-min Rain = 0
KAI1 082227Z 26023KT 20/05 A2977 RMK A01 T01970045  RH  037%=      5-min Rain = 0
KAI1 082228Z 25021G26KT 20/05 A2977 RMK A01 T01970045  RH  037%=      5-min Rain = 0
KAI1 082229Z 25021KT 20/05 A2977 RMK A01 T01970046  RH  037%=      5-min Rain = 0
KAI1 082230Z 25021G27KT 20/05 A2978 RMK A01 T01960046  RH  037%=      5-min Rain = 0
KAI1 082231Z 26022KT 20/05 A2978 RMK A01 T01960046  RH  037%=      5-min Rain = 0
KAI1 082232Z 25023G30KT 20/05 A2978 RMK A01 T01960046  RH  037%=      5-min Rain = 0
KAI1 082233Z 25021G26KT 20/05 A2978 RMK A01 T01960046  RH  037%=      5-min Rain = 0
KAI1 082234Z 25019KT 20/05 A2978 RMK A01 T01950047  RH  038%=      5-min Rain = 0
KAI1 082235Z 25020G25KT 20/05 A2978 RMK A01 T01950047  RH  038%=      5-min Rain = 0
KAI1 082236Z 25023KT 19/05 A2977 RMK A01 T01940047  RH  038%=      5-min Rain = 0
KAI1 082237Z 25020KT 19/05 A2978 RMK A01 T01940047  RH  038%=      5-min Rain = 0
KAI1 082238Z 25021KT 19/05 A2978 RMK A01 T01940048  RH  038%=      5-min Rain = 0
KAI1 082239Z 25021KT 19/05 A2977 RMK A01 T01930048  RH  038%=      5-min Rain = 0
KAI1 082240Z 25020KT 19/05 A2978 RMK A01 T01940048  RH  038%=      5-min Rain = 0
KAI1 082241Z 25022G27KT 19/05 A2978 RMK A01 T01940048  RH  038%=      5-min Rain = 0
KAI1 082242Z 25027G33KT 19/05 A2978 RMK A01 T01930048  RH  038%=      5-min Rain = 0
KAI1 082243Z 26025G31KT 19/05 A2978 RMK A01 T01940047  RH  038%=      5-min Rain = 0
KAI1 082244Z 26024KT 20/05 A2978 RMK A01 T01950047  RH  038%=      5-min Rain = 0
KAI1 082245Z 25023G30KT 19/05 A2978 RMK A01 T01940047  RH  038%=      5-min Rain = 0
KAI1 082246Z 25025G32KT 19/05 A2978 RMK A01 T01940047  RH  038%=      5-min Rain = 0
KAI1 082247Z 25022KT 19/05 A2978 RMK A01 T01940047  RH  038%=      5-min Rain = 0
KAI1 082248Z 25021KT 19/05 A2978 RMK A01 T01930048  RH  038%=      5-min Rain = 0
KAI1 082249Z 25020KT 19/05 A2978 RMK A01 T01920048  RH  039%=      5-min Rain = 0
KAI1 082250Z 25021KT 19/05 A2978 RMK A01 T01920048  RH  039%=      5-min Rain = 0
KAI1 082251Z 25022KT 19/05 A2978 RMK A01 T01910048  RH  039%=      5-min Rain = 0
KAI1 082252Z 25018KT 19/05 A2978 RMK A01 T01910048  RH  039%=      5-min Rain = 0
KAI1 082253Z 26019KT 19/05 A2979 RMK A01 T01900048  RH  039%=      5-min Rain = 0
KAI1 082254Z 25020KT 19/05 A2978 RMK A01 T01900048  RH  039%=      5-min Rain = 0
KAI1 082255Z 25016KT 19/05 A2978 RMK A01 T01890048  RH  039%=      5-min Rain = 0
KAI1 082256Z 25020KT 19/05 A2978 RMK A01 T01890048  RH  040%=      5-min Rain = 0
KAI1 082257Z 26020KT 19/05 A2978 RMK A01 T01890049  RH  040%=      5-min Rain = 0
KAI1 082258Z 25021KT 19/05 A2978 RMK A01 T01890049  RH  040%=      5-min Rain = 0
KAI1 082259Z 26018KT 19/05 A2978 RMK A01 T01890049  RH  040%=      5-min Rain = 0
KAI1 082300Z 25020KT 19/05 A2978 RMK A01 T01880049  RH  040%=      5-min Rain = 0
KAI1 082301Z 26021KT 19/05 A2978 RMK A01 T01880048  RH  040%=      5-min Rain = 0
KAI1 082302Z 26023G29KT 19/05 A2978 RMK A01 T01880048  RH  040%=      5-min Rain = 0
KAI1 082303Z 26018KT 19/05 A2979 RMK A01 T01890049  RH  040%=      5-min Rain = 0
KAI1 082304Z 26021KT 19/05 A2978 RMK A01 T01880048  RH  040%=      5-min Rain = 0
KAI1 082305Z 26019KT 19/05 A2979 RMK A01 T01880048  RH  040%=      5-min Rain = 0
KAI1 082306Z 25019KT 19/05 A2978 RMK A01 T01880049  RH  040%=      5-min Rain = 0
KAI1 082307Z 26017G22KT 19/05 A2978 RMK A01 T01870048  RH  040%=      5-min Rain = 0
KAI1 082308Z 25018KT 19/05 A2978 RMK A01 T01860048  RH  040%=      5-min Rain = 0
KAI1 082309Z 25018KT 19/05 A2979 RMK A01 T01860048  RH  040%=      5-min Rain = 0
KAI1 082310Z 25016KT 19/05 A2979 RMK A01 T01850048  RH  040%=      5-min Rain = 0
KAI1 082311Z 25015KT 19/05 A2979 RMK A01 T01850049  RH  041%=      5-min Rain = 0
KAI1 082312Z 25016KT 18/05 A2979 RMK A01 T01840048  RH  041%=      5-min Rain = 0
KAI1 082313Z 25018G23KT 18/05 A2979 RMK A01 T01830048  RH  041%=      5-min Rain = 0
KAI1 082314Z 25018G23KT 18/05 A2979 RMK A01 T01830048  RH  041%=      5-min Rain = 0
KAI1 082315Z 25016KT 18/05 A2979 RMK A01 T01830049  RH  041%=      5-min Rain = 0
KAI1 082316Z 25017KT 18/05 A2979 RMK A01 T01830048  RH  041%=      5-min Rain = 0
KAI1 082317Z 25015KT 18/05 A2979 RMK A01 T01820048  RH  041%=      5-min Rain = 0
KAI1 082318Z 25017KT 18/05 A2979 RMK A01 T01810048  RH  041%=      5-min Rain = 0
KAI1 082319Z 25017KT 18/05 A2979 RMK A01 T01810048  RH  042%=      5-min Rain = 0
KAI1 082320Z 25017KT 18/05 A2978 RMK A01 T01810048  RH  042%=      5-min Rain = 0
KAI1 082321Z 25016KT 18/05 A2979 RMK A01 T01810049  RH  042%=      5-min Rain = 0
KAI1 082322Z 25018KT 18/05 A2979 RMK A01 T01800048  RH  042%=      5-min Rain = 0
KAI1 082323Z 26019KT 18/05 A2978 RMK A01 T01800048  RH  042%=      5-min Rain = 0
KAI1 082324Z 25020KT 18/05 A2978 RMK A01 T01810049  RH  042%=      5-min Rain = 0
KAI1 082325Z 25016G21KT 18/05 A2979 RMK A01 T01810048  RH  042%=      5-min Rain = 0
KAI1 082326Z 26018KT 18/05 A2979 RMK A01 T01810049  RH  042%=      5-min Rain = 0
KAI1 082327Z 26018KT 18/05 A2979 RMK A01 T01800049  RH  042%=      5-min Rain = 0
KAI1 082328Z 25018KT 18/05 A2979 RMK A01 T01800048  RH  042%=      5-min Rain = 0
KAI1 082329Z 25017KT 18/05 A2978 RMK A01 T01800048  RH  042%=      5-min Rain = 0
KAI1 082330Z 25016KT 18/05 A2978 RMK A01 T01790048  RH  042%=      5-min Rain = 0
KAI1 082331Z 25017KT 18/05 A2978 RMK A01 T01780048  RH  042%=      5-min Rain = 0
KAI1 082332Z 25017KT 18/05 A2978 RMK A01 T01780048  RH  042%=      5-min Rain = 0
KAI1 082333Z 25016KT 18/05 A2978 RMK A01 T01770049  RH  043%=      5-min Rain = 0
KAI1 082334Z 25016KT 18/05 A2978 RMK A01 T01770049  RH  043%=      5-min Rain = 0
KAI1 082335Z 25015KT 18/05 A2978 RMK A01 T01760048  RH  043%=      5-min Rain = 0
KAI1 082336Z 25017KT 18/05 A2978 RMK A01 T01750048  RH  043%=      5-min Rain = 0
KAI1 082337Z 24017KT 18/05 A2978 RMK A01 T01750049  RH  043%=      5-min Rain = 0
KAI1 082338Z 25018KT 18/05 A2978 RMK A01 T01750048  RH  043%=      5-min Rain = 0
KAI1 082339Z 25016G21KT 18/05 A2978 RMK A01 T01750048  RH  043%=      5-min Rain = 0
KAI1 082340Z 25018KT 17/05 A2978 RMK A01 T01740048  RH  043%=      5-min Rain = 0
KAI1 082341Z 25016KT 17/05 A2978 RMK A01 T01740048  RH  043%=      5-min Rain = 0
KAI1 082342Z 25016G21KT 17/05 A2978 RMK A01 T01740048  RH  043%=      5-min Rain = 0
KAI1 082343Z 25016KT 17/05 A2978 RMK A01 T01740048  RH  043%=      5-min Rain = 0
KAI1 082344Z 25019KT 17/05 A2978 RMK A01 T01730048  RH  043%=      5-min Rain = 0
KAI1 082345Z 25019KT 17/05 A2978 RMK A01 T01740048  RH  043%=      5-min Rain = 0
KAI1 082346Z 25018KT 17/05 A2978 RMK A01 T01740048  RH  043%=      5-min Rain = 0
KAI1 082347Z 25019KT 17/05 A2978 RMK A01 T01740048  RH  043%=      5-min Rain = 0
KAI1 082348Z 25020KT 17/05 A2978 RMK A01 T01740048  RH  043%=      5-min Rain = 0
KAI1 082349Z 25019KT 18/05 A2978 RMK A01 T01750048  RH  043%=      5-min Rain = 0
KAI1 082350Z 25019KT 18/05 A2978 RMK A01 T01750048  RH  043%=      5-min Rain = 0
KAI1 082351Z 25018KT 18/05 A2978 RMK A01 T01750047  RH  043%=      5-min Rain = 0
KAI1 082352Z 25019KT 18/05 A2978 RMK A01 T01750047  RH  043%=      5-min Rain = 0
KAI1 082353Z 25018KT 18/05 A2979 RMK A01 T01750047  RH  043%=      5-min Rain = 0
KAI1 082354Z 25019KT 18/05 A2979 RMK A01 T01750047  RH  043%=      5-min Rain = 0
KAI1 082355Z 25020KT 17/05 A2978 RMK A01 T01740047  RH  043%=      5-min Rain = 0
KAI1 082356Z 25017KT 17/05 A2979 RMK A01 T01740047  RH  043%=      5-min Rain = 0
KAI1 082357Z 25017KT 17/05 A2979 RMK A01 T01740047  RH  043%=      5-min Rain = 0
KAI1 082358Z 25018KT 17/05 A2979 RMK A01 T01730047  RH  043%=      5-min Rain = 0
KAI1 082359Z 25018KT 17/05 A2979 RMK A01 T01730047  RH  043%=      5-min Rain = 0
KAI1 090000Z 25018G23KT 17/05 A2979 RMK A01 T01730047  RH  043%=      5-min Rain = 0
KAI1 090001Z 25017KT 17/05 A2979 RMK A01 T01730047  RH  043%=      5-min Rain = 0
KAI1 090002Z 25018KT 17/05 A2979 RMK A01 T01720047  RH  043%=      5-min Rain = 0
KAI1 090003Z 25017KT 17/05 A2979 RMK A01 T01720047  RH  043%=      5-min Rain = 0
KAI1 090004Z 25017G22KT 17/05 A2979 RMK A01 T01710046  RH  044%=      5-min Rain = 0
KAI1 090005Z 25018KT 17/05 A2979 RMK A01 T01710046  RH  044%=      5-min Rain = 0
KAI1 090006Z 25018KT 17/05 A2979 RMK A01 T01710047  RH  044%=      5-min Rain = 0
KAI1 090007Z 25017KT 17/05 A2979 RMK A01 T01700046  RH  044%=      5-min Rain = 0
KAI1 090008Z 25016KT 17/05 A2979 RMK A01 T01700046  RH  044%=      5-min Rain = 0
KAI1 090009Z 25017KT 17/05 A2979 RMK A01 T01690046  RH  044%=      5-min Rain = 0
KAI1 090010Z 25016KT 17/05 A2979 RMK A01 T01690047  RH  044%=      5-min Rain = 0
KAI1 090011Z 25017KT 17/05 A2979 RMK A01 T01670046  RH  045%=      5-min Rain = 0
KAI1 090012Z 25016KT 17/05 A2979 RMK A01 T01680047  RH  045%=      5-min Rain = 0
KAI1 090013Z 25017G22KT 17/05 A2979 RMK A01 T01670046  RH  045%=      5-min Rain = 0
KAI1 090014Z 25018KT 17/05 A2979 RMK A01 T01680047  RH  045%=      5-min Rain = 0
KAI1 090015Z 25018KT 17/05 A2979 RMK A01 T01680046  RH  044%=      5-min Rain = 0
KAI1 090016Z 25017KT 17/05 A2979 RMK A01 T01680046  RH  044%=      5-min Rain = 0
KAI1 090017Z 25019KT 17/05 A2979 RMK A01 T01680047  RH  045%=      5-min Rain = 0
KAI1 090018Z 25017KT 17/05 A2979 RMK A01 T01680046  RH  045%=      5-min Rain = 0
KAI1 090019Z 25017KT 17/05 A2979 RMK A01 T01680046  RH  044%=      5-min Rain = 0
KAI1 090020Z 25017KT 17/05 A2979 RMK A01 T01680046  RH  045%=      5-min Rain = 0
KAI1 090021Z 25015KT 17/05 A2979 RMK A01 T01680047  RH  045%=      5-min Rain = 0
KAI1 090022Z 25015KT 17/05 A2979 RMK A01 T01670046  RH  045%=      5-min Rain = 0
KAI1 090023Z 25015KT 17/05 A2979 RMK A01 T01660046  RH  045%=      5-min Rain = 0
KAI1 090024Z 25014KT 17/05 A298 RMK A01 T01650046  RH  045%=      5-min Rain = 0
KAI1 090025Z 26015KT 16/05 A298 RMK A01 T01640046  RH  045%=      5-min Rain = 0
KAI1 090026Z 25014KT 16/05 A298 RMK A01 T01640046  RH  046%=      5-min Rain = 0
KAI1 090027Z 25015KT 16/05 A298 RMK A01 T01640046  RH  046%=      5-min Rain = 0
KAI1 090028Z 26015KT 16/05 A298 RMK A01 T01640047  RH  046%=      5-min Rain = 0
KAI1 090029Z 25014KT 16/05 A298 RMK A01 T01630047  RH  046%=      5-min Rain = 0
KAI1 090030Z 26016KT 16/05 A298 RMK A01 T01630046  RH  046%=      5-min Rain = 0
KAI1 090031Z 26016KT 16/05 A298 RMK A01 T01630047  RH  046%=      5-min Rain = 0
KAI1 090032Z 26016KT 16/05 A298 RMK A01 T01630047  RH  046%=      5-min Rain = 0
KAI1 090033Z 26015KT 16/05 A298 RMK A01 T01640047  RH  046%=      5-min Rain = 0
KAI1 090034Z 26015KT 16/05 A298 RMK A01 T01640047  RH  046%=      5-min Rain = 0
KAI1 090035Z 26017KT 16/05 A298 RMK A01 T01640047  RH  046%=      5-min Rain = 0
KAI1 090036Z 26016KT 16/05 A298 RMK A01 T01640047  RH  046%=      5-min Rain = 0
KAI1 090037Z 26015KT 16/05 A298 RMK A01 T01640047  RH  046%=      5-min Rain = 0
KAI1 090038Z 26016KT 16/05 A298 RMK A01 T01640047  RH  046%=      5-min Rain = 0
KAI1 090039Z 26016KT 16/05 A298 RMK A01 T01640047  RH  046%=      5-min Rain = 0
KAI1 090040Z 26017KT 16/05 A298 RMK A01 T01630047  RH  046%=      5-min Rain = 0
KAI1 090041Z 26016KT 16/05 A298 RMK A01 T01630047  RH  046%=      5-min Rain = 0
KAI1 090042Z 26018KT 16/05 A298 RMK A01 T01630047  RH  046%=      5-min Rain = 0
KAI1 090043Z 26015G20KT 16/05 A298 RMK A01 T01630047  RH  046%=      5-min Rain = 0
KAI1 090044Z 26015KT 16/05 A298 RMK A01 T01620047  RH  046%=      5-min Rain = 0
KAI1 090045Z 26016KT 16/05 A298 RMK A01 T01620047  RH  046%=      5-min Rain = 0
KAI1 090046Z 26015KT 16/05 A298 RMK A01 T01620047  RH  046%=      5-min Rain = 0
KAI1 090047Z 26014KT 16/05 A298 RMK A01 T01620047  RH  046%=      5-min Rain = 0
KAI1 090048Z 26015KT 16/05 A298 RMK A01 T01610047  RH  047%=      5-min Rain = 0
KAI1 090049Z 26016KT 16/05 A298 RMK A01 T01600047  RH  047%=      5-min Rain = 0
KAI1 090050Z 26015KT 16/05 A298 RMK A01 T01600047  RH  047%=      5-min Rain = 0
KAI1 090051Z 26016KT 16/05 A298 RMK A01 T01600047  RH  047%=      5-min Rain = 0
KAI1 090052Z 26016KT 16/05 A298 RMK A01 T01590047  RH  047%=      5-min Rain = 0
KAI1 090053Z 26014G19KT 16/05 A298 RMK A01 T01600047  RH  047%=      5-min Rain = 0
KAI1 090054Z 26014KT 16/05 A298 RMK A01 T01590047  RH  047%=      5-min Rain = 0
KAI1 090055Z 26014KT 16/05 A298 RMK A01 T01590048  RH  048%=      5-min Rain = 0
KAI1 090056Z 26015KT 16/05 A298 RMK A01 T01580047  RH  048%=      5-min Rain = 0
KAI1 090057Z 26016KT 16/05 A298 RMK A01 T01580047  RH  048%=      5-min Rain = 0
KAI1 090058Z 25017KT 16/05 A298 RMK A01 T01580048  RH  048%=      5-min Rain = 0
KAI1 090059Z 25015KT 16/05 A298 RMK A01 T01590048  RH  048%=      5-min Rain = 0
KAI1 090100Z 26016KT 16/05 A298 RMK A01 T01590048  RH  048%=      5-min Rain = 0
KAI1 090101Z 25015KT 16/05 A298 RMK A01 T01590048  RH  048%=      5-min Rain = 0
KAI1 090102Z 25016KT 16/05 A298 RMK A01 T01590048  RH  048%=      5-min Rain = 0
KAI1 090103Z 25014KT 16/05 A298 RMK A01 T01590048  RH  048%=      5-min Rain = 0
KAI1 090104Z 25016KT 16/05 A298 RMK A01 T01580048  RH  048%=      5-min Rain = 0
KAI1 090105Z 25016KT 16/05 A298 RMK A01 T01580048  RH  048%=      5-min Rain = 0
KAI1 090106Z 25015KT 16/05 A298 RMK A01 T01580049  RH  048%=      5-min Rain = 0
KAI1 090107Z 25016KT 16/05 A298 RMK A01 T01570049  RH  048%=      5-min Rain = 0
KAI1 090108Z 25017KT 16/05 A2981 RMK A01 T01570049  RH  049%=      5-min Rain = 0
KAI1 090109Z 25016G21KT 16/05 A2981 RMK A01 T01570049  RH  049%=      5-min Rain = 0
KAI1 090110Z 25016KT 16/05 A2981 RMK A01 T01570049  RH  049%=      5-min Rain = 0
KAI1 090111Z 26015KT 16/05 A298 RMK A01 T01570049  RH  048%=      5-min Rain = 0
KAI1 090112Z 25015KT 16/05 A298 RMK A01 T01570049  RH  048%=      5-min Rain = 0
KAI1 090113Z 25015KT 16/05 A2981 RMK A01 T01570049  RH  049%=      5-min Rain = 0
KAI1 090114Z 25016KT 16/05 A2981 RMK A01 T01570049  RH  049%=      5-min Rain = 0
KAI1 090115Z 25017KT 16/05 A2981 RMK A01 T01570049  RH  049%=      5-min Rain = 0
KAI1 090116Z 25017KT 16/05 A2981 RMK A01 T01570049  RH  049%=      5-min Rain = 0
KAI1 090117Z 25016KT 16/05 A2981 RMK A01 T01570049  RH  049%=      5-min Rain = 0
KAI1 090118Z 25014KT 16/05 A2981 RMK A01 T01570050  RH  049%=      5-min Rain = 0
KAI1 090119Z 25016KT 16/05 A2981 RMK A01 T01560049  RH  049%=      5-min Rain = 0
KAI1 090120Z 25015KT 16/05 A2981 RMK A01 T01560049  RH  049%=      5-min Rain = 0
KAI1 090121Z 25016KT 16/05 A2981 RMK A01 T01550049  RH  049%=      5-min Rain = 0
KAI1 090122Z 25014KT 16/05 A2981 RMK A01 T01550049  RH  049%=      5-min Rain = 0
KAI1 090123Z 25014KT 15/05 A2981 RMK A01 T01540049  RH  049%=      5-min Rain = 0
KAI1 090124Z 26015KT 15/05 A2981 RMK A01 T01540049  RH  050%=      5-min Rain = 0
KAI1 090125Z 25014KT 15/05 A2981 RMK A01 T01540049  RH  050%=      5-min Rain = 0
KAI1 090126Z 25014KT 15/05 A2981 RMK A01 T01530049  RH  050%=      5-min Rain = 0
KAI1 090127Z 26016KT 15/05 A2981 RMK A01 T01530049  RH  050%=      5-min Rain = 0
KAI1 090128Z 25017KT 15/05 A2981 RMK A01 T01530049  RH  050%=      5-min Rain = 0
KAI1 090129Z 25017KT 15/05 A2981 RMK A01 T01530049  RH  050%=      5-min Rain = 0
KAI1 090130Z 26016KT 15/05 A2981 RMK A01 T01540049  RH  049%=      5-min Rain = 0
KAI1 090131Z 25017KT 15/05 A2981 RMK A01 T01540049  RH  049%=      5-min Rain = 0
KAI1 090132Z 26017KT 15/05 A2981 RMK A01 T01540049  RH  049%=      5-min Rain = 0
KAI1 090133Z 25017KT 16/05 A2981 RMK A01 T01550049  RH  049%=      5-min Rain = 0
KAI1 090134Z 25017KT 16/05 A2981 RMK A01 T01550049  RH  049%=      5-min Rain = 0
KAI1 090135Z 26016KT 15/05 A2981 RMK A01 T01540048  RH  049%=      5-min Rain = 0
KAI1 090136Z 26016KT 15/05 A2981 RMK A01 T01540048  RH  049%=      5-min Rain = 0
KAI1 090137Z 26015KT 15/05 A2981 RMK A01 T01540048  RH  049%=      5-min Rain = 0
KAI1 090138Z 25019KT 15/05 A2981 RMK A01 T01530048  RH  050%=      5-min Rain = 0
KAI1 090139Z 26017KT 15/05 A2981 RMK A01 T01530048  RH  049%=      5-min Rain = 0
KAI1 090140Z 26019KT 15/05 A2981 RMK A01 T01540048  RH  049%=      5-min Rain = 0
KAI1 090141Z 26018KT 16/05 A2981 RMK A01 T01550048  RH  049%=      5-min Rain = 0
KAI1 090142Z 26020KT 16/05 A2981 RMK A01 T01550048  RH  049%=      5-min Rain = 0
KAI1 090143Z 26019KT 16/05 A2981 RMK A01 T01550048  RH  049%=      5-min Rain = 0
KAI1 090144Z 26018KT 16/05 A2981 RMK A01 T01550047  RH  049%=      5-min Rain = 0
KAI1 090145Z 26020G26KT 16/05 A2981 RMK A01 T01550047  RH  049%=      5-min Rain = 0
KAI1 090146Z 26018G25KT 15/05 A2981 RMK A01 T01540047  RH  049%=      5-min Rain = 0
KAI1 090147Z 26019G25KT 15/05 A298 RMK A01 T01540046  RH  048%=      5-min Rain = 0
KAI1 090148Z 26023KT 16/05 A298 RMK A01 T01550046  RH  048%=      5-min Rain = 0
KAI1 090149Z 26018G23KT 16/05 A2981 RMK A01 T01560046  RH  048%=      5-min Rain = 0
KAI1 090150Z 26020KT 16/05 A2981 RMK A01 T01560046  RH  048%=      5-min Rain = 0
KAI1 090151Z 26020KT 16/05 A2981 RMK A01 T01550046  RH  048%=      5-min Rain = 0
KAI1 090152Z 26022KT 16/05 A2981 RMK A01 T01550046  RH  048%=      5-min Rain = 0
KAI1 090153Z 26021G26KT 16/05 A298 RMK A01 T01550045  RH  048%=      5-min Rain = 0
KAI1 090154Z 26022G31KT 16/05 A2981 RMK A01 T01560045  RH  048%=      5-min Rain = 0
KAI1 090155Z 26021KT 16/05 A2981 RMK A01 T01560045  RH  048%=      5-min Rain = 0
KAI1 090156Z 26022KT 16/05 A2981 RMK A01 T01550045  RH  048%=      5-min Rain = 0
KAI1 090157Z 26023KT 16/05 A298 RMK A01 T01550045  RH  048%=      5-min Rain = 0
KAI1 090158Z 26022KT 16/04 A2981 RMK A01 T01550044  RH  048%=      5-min Rain = 0
KAI1 090159Z 26025KT 16/04 A2981 RMK A01 T01550044  RH  047%=      5-min Rain = 0
KAI1 090200Z 26023KT 16/04 A2981 RMK A01 T01560044  RH  047%=      5-min Rain = 0
KAI1 090201Z 26024G29KT 16/04 A2981 RMK A01 T01560044  RH  047%=      5-min Rain = 0
KAI1 090202Z 26022KT 16/04 A2981 RMK A01 T01560044  RH  047%=      5-min Rain = 0
KAI1 090203Z 26022G27KT 16/04 A2981 RMK A01 T01550044  RH  047%=      5-min Rain = 0
KAI1 090204Z 26022G27KT 15/04 A2981 RMK A01 T01540044  RH  048%=      5-min Rain = 0
KAI1 090205Z 26023G31KT 16/04 A2981 RMK A01 T01550044  RH  048%=      5-min Rain = 0
KAI1 090206Z 26024G29KT 16/04 A2981 RMK A01 T01550044  RH  048%=      5-min Rain = 0
KAI1 090207Z 26023G28KT 15/04 A2981 RMK A01 T01540044  RH  048%=      5-min Rain = 0
KAI1 090208Z 26019G24KT 15/04 A2981 RMK A01 T01540044  RH  048%=      5-min Rain = 0
KAI1 090209Z 26024KT 15/04 A2981 RMK A01 T01530044  RH  048%=      5-min Rain = 0
KAI1 090210Z 26022G28KT 15/04 A2981 RMK A01 T01530044  RH  048%=      5-min Rain = 0
KAI1 090211Z 26022KT 15/05 A2981 RMK A01 T01530045  RH  048%=      5-min Rain = 0
KAI1 090212Z 26022KT 15/05 A2981 RMK A01 T01530045  RH  049%=      5-min Rain = 0
KAI1 090213Z 26022KT 15/05 A2981 RMK A01 T01520045  RH  049%=      5-min Rain = 0
KAI1 090214Z 26022G27KT 15/04 A2981 RMK A01 T01520044  RH  049%=      5-min Rain = 0
KAI1 090215Z 26023G28KT 15/05 A2981 RMK A01 T01510045  RH  049%=      5-min Rain = 0
KAI1 090216Z 26023G28KT 15/05 A2981 RMK A01 T01510045  RH  049%=      5-min Rain = 0
KAI1 090217Z 26021KT 15/05 A2982 RMK A01 T01510045  RH  049%=      5-min Rain = 0
KAI1 090218Z 26022KT 15/05 A2981 RMK A01 T01510045  RH  049%=      5-min Rain = 0
KAI1 090219Z 26022KT 15/04 A2981 RMK A01 T01500044  RH  049%=      5-min Rain = 0
KAI1 090220Z 26021KT 15/04 A2981 RMK A01 T01500044  RH  049%=      5-min Rain = 0
KAI1 090221Z 26020KT 15/04 A2981 RMK A01 T01500044  RH  049%=      5-min Rain = 0
KAI1 090222Z 25019G24KT 15/04 A2981 RMK A01 T01490044  RH  050%=      5-min Rain = 0
KAI1 090223Z 26021KT 15/04 A2981 RMK A01 T01480044  RH  050%=      5-min Rain = 0
KAI1 090224Z 25021KT 15/04 A298 RMK A01 T01480044  RH  050%=      5-min Rain = 0
KAI1 090225Z 25022G27KT 15/04 A298 RMK A01 T01480044  RH  050%=      5-min Rain = 0
KAI1 090226Z 25020G26KT 15/04 A298 RMK A01 T01480044  RH  050%=      5-min Rain = 0
KAI1 090227Z 25022KT 15/04 A298 RMK A01 T01480044  RH  050%=      5-min Rain = 0
KAI1 090228Z 25022KT 15/04 A298 RMK A01 T01480044  RH  050%=      5-min Rain = 0
KAI1 090229Z 25019G24KT 15/04 A2981 RMK A01 T01470044  RH  050%=      5-min Rain = 0
KAI1 090230Z 25020G25KT 15/04 A2981 RMK A01 T01460044  RH  050%=      5-min Rain = 0
KAI1 090231Z 25020KT 15/04 A2981 RMK A01 T01450044  RH  051%=      5-min Rain = 0
KAI1 090232Z 25019KT 15/05 A298 RMK A01 T01450045  RH  051%=      5-min Rain = 0
KAI1 090233Z 25020KT 15/05 A298 RMK A01 T01450045  RH  051%=      5-min Rain = 0
KAI1 090234Z 25019KT 15/05 A298 RMK A01 T01450045  RH  051%=      5-min Rain = 0
KAI1 090235Z 25020G25KT 14/04 A298 RMK A01 T01440044  RH  051%=      5-min Rain = 0
KAI1 090236Z 25019KT 14/05 A298 RMK A01 T01440045  RH  051%=      5-min Rain = 0
KAI1 090237Z 25020KT 14/05 A298 RMK A01 T01430045  RH  051%=      5-min Rain = 0
KAI1 090238Z 25020KT 14/05 A2981 RMK A01 T01430045  RH  052%=      5-min Rain = 0
KAI1 090239Z 25021KT 14/05 A2981 RMK A01 T01430045  RH  052%=      5-min Rain = 0
KAI1 090240Z 25018KT 14/04 A2981 RMK A01 T01430044  RH  051%=      5-min Rain = 0
KAI1 090241Z 25019KT 14/04 A2981 RMK A01 T01430044  RH  052%=      5-min Rain = 0
KAI1 090242Z 26020KT 14/04 A2981 RMK A01 T01420044  RH  052%=      5-min Rain = 0
KAI1 090243Z 26020G25KT 14/04 A2981 RMK A01 T01420044  RH  052%=      5-min Rain = 0
KAI1 090244Z 26020KT 14/04 A298 RMK A01 T01430044  RH  052%=      5-min Rain = 0
KAI1 090245Z 26017KT 14/04 A298 RMK A01 T01430044  RH  052%=      5-min Rain = 0
KAI1 090246Z 26017KT 14/04 A298 RMK A01 T01410044  RH  052%=      5-min Rain = 0
KAI1 090247Z 26017KT 14/04 A298 RMK A01 T01400043  RH  052%=      5-min Rain = 0
KAI1 090248Z 26018KT 14/04 A298 RMK A01 T01400043  RH  052%=      5-min Rain = 0
KAI1 090249Z 26018KT 14/04 A298 RMK A01 T01400043  RH  052%=      5-min Rain = 0
KAI1 090250Z 26017KT 14/04 A298 RMK A01 T01400043  RH  052%=      5-min Rain = 0
KAI1 090251Z 26016G21KT 14/04 A298 RMK A01 T01390043  RH  052%=      5-min Rain = 0
KAI1 090252Z 25016KT 14/04 A2981 RMK A01 T01390043  RH  052%=      5-min Rain = 0
KAI1 090253Z 25018KT 14/04 A2981 RMK A01 T01380043  RH  053%=      5-min Rain = 0
KAI1 090254Z 25016KT 14/04 A2981 RMK A01 T01370043  RH  053%=      5-min Rain = 0
KAI1 090255Z 25016KT 14/04 A2981 RMK A01 T01360042  RH  053%=      5-min Rain = 0
KAI1 090256Z 25018KT 14/04 A2981 RMK A01 T01360042  RH  053%=      5-min Rain = 0
KAI1 090257Z 25018KT 14/04 A298 RMK A01 T01360042  RH  053%=      5-min Rain = 0
KAI1 090258Z 25019KT 14/04 A298 RMK A01 T01360042  RH  053%=      5-min Rain = 0
KAI1 090259Z 26016KT 14/04 A298 RMK A01 T01370042  RH  053%=      5-min Rain = 0
KAI1 090300Z 26017KT 14/04 A298 RMK A01 T01360042  RH  053%=      5-min Rain = 0
KAI1 090301Z 26018KT 14/04 A298 RMK A01 T01360042  RH  053%=      5-min Rain = 0
KAI1 090302Z 25017KT 14/04 A298 RMK A01 T01370041  RH  053%=      5-min Rain = 0
KAI1 090303Z 25017KT 14/04 A298 RMK A01 T01370041  RH  053%=      5-min Rain = 0
KAI1 090304Z 25016KT 14/04 A2981 RMK A01 T01360041  RH  053%=      5-min Rain = 0
KAI1 090305Z 26015KT 14/04 A2981 RMK A01 T01360041  RH  053%=      5-min Rain = 0
KAI1 090306Z 26015KT 14/04 A2981 RMK A01 T01350041  RH  053%=      5-min Rain = 0
KAI1 090307Z 26016KT 13/04 A298 RMK A01 T01340040  RH  053%=      5-min Rain = 0
KAI1 090308Z 26015KT 13/04 A2981 RMK A01 T01330040  RH  053%=      5-min Rain = 0
KAI1 090309Z 25015KT 13/04 A2981 RMK A01 T01330040  RH  053%=      5-min Rain = 0
KAI1 090310Z 26017KT 13/04 A298 RMK A01 T01320040  RH  053%=      5-min Rain = 0
KAI1 090311Z 26017KT 13/04 A298 RMK A01 T01320039  RH  053%=      5-min Rain = 0
KAI1 090312Z 25015KT 13/04 A298 RMK A01 T01320039  RH  053%=      5-min Rain = 0
KAI1 090313Z 25015KT 13/04 A298 RMK A01 T01320039  RH  053%=      5-min Rain = 0
KAI1 090314Z 25017KT 13/04 A298 RMK A01 T01320039  RH  053%=      5-min Rain = 0
KAI1 090315Z 25016KT 13/04 A2981 RMK A01 T01320039  RH  054%=      5-min Rain = 0
KAI1 090316Z 25017KT 13/04 A2981 RMK A01 T01320039  RH  053%=      5-min Rain = 0
KAI1 090317Z 25016G22KT 13/04 A2981 RMK A01 T01320039  RH  053%=      5-min Rain = 0
KAI1 090318Z 25016KT 13/04 A2981 RMK A01 T01320039  RH  053%=      5-min Rain = 0
KAI1 090319Z 25016KT 13/04 A2981 RMK A01 T01310038  RH  053%=      5-min Rain = 0
KAI1 090320Z 25016KT 13/04 A2981 RMK A01 T01310039  RH  053%=      5-min Rain = 0
KAI1 090321Z 25017KT 13/04 A2981 RMK A01 T01310039  RH  053%=      5-min Rain = 0
KAI1 090322Z 25016KT 13/04 A2981 RMK A01 T01310038  RH  053%=      5-min Rain = 0
KAI1 090323Z 25017KT 13/04 A2981 RMK A01 T01310039  RH  053%=      5-min Rain = 0
KAI1 090324Z 25017KT 13/04 A2981 RMK A01 T01310038  RH  054%=      5-min Rain = 0
KAI1 090325Z 25016KT 13/04 A2981 RMK A01 T01310039  RH  054%=      5-min Rain = 0
KAI1 090326Z 25018KT 13/04 A2981 RMK A01 T01310039  RH  054%=      5-min Rain = 0
KAI1 090327Z 25018KT 13/04 A2981 RMK A01 T01310039  RH  054%=      5-min Rain = 0
KAI1 090328Z 25017G22KT 13/04 A2981 RMK A01 T01310039  RH  054%=      5-min Rain = 0
KAI1 090329Z 25016KT 13/04 A2981 RMK A01 T01310039  RH  054%=      5-min Rain = 0
KAI1 090330Z 25017KT 13/04 A2981 RMK A01 T01310039  RH  054%=      5-min Rain = 0
KAI1 090331Z 25017KT 13/04 A2981 RMK A01 T01310040  RH  054%=      5-min Rain = 0
KAI1 090332Z 25017KT 13/04 A2981 RMK A01 T01310039  RH  054%=      5-min Rain = 0
KAI1 090333Z 25017KT 13/04 A2981 RMK A01 T01300039  RH  054%=      5-min Rain = 0
KAI1 090334Z 26016KT 13/04 A2981 RMK A01 T01300040  RH  054%=      5-min Rain = 0
KAI1 090335Z 25016KT 13/04 A2981 RMK A01 T01300040  RH  054%=      5-min Rain = 0
KAI1 090336Z 26017KT 13/04 A2981 RMK A01 T01300040  RH  054%=      5-min Rain = 0
KAI1 090337Z 25017KT 13/04 A2981 RMK A01 T01300040  RH  054%=      5-min Rain = 0
KAI1 090338Z 25017KT 13/04 A298 RMK A01 T01310039  RH  054%=      5-min Rain = 0
KAI1 090339Z 25016KT 13/04 A298 RMK A01 T01310039  RH  054%=      5-min Rain = 0
KAI1 090340Z 25016G23KT 13/04 A298 RMK A01 T01310039  RH  054%=      5-min Rain = 0
KAI1 090341Z 25017KT 13/04 A298 RMK A01 T01310039  RH  054%=      5-min Rain = 0
KAI1 090342Z 25015KT 13/04 A2981 RMK A01 T01300039  RH  054%=      5-min Rain = 0
KAI1 090343Z 25016KT 13/04 A2981 RMK A01 T01300039  RH  054%=      5-min Rain = 0
KAI1 090344Z 25018KT 13/04 A2981 RMK A01 T01290039  RH  054%=      5-min Rain = 0
KAI1 090345Z 25016KT 13/04 A2981 RMK A01 T01300039  RH  054%=      5-min Rain = 0
KAI1 090346Z 25014KT 13/04 A2981 RMK A01 T01290038  RH  054%=      5-min Rain = 0
KAI1 090347Z 26019KT 13/04 A2981 RMK A01 T01290039  RH  054%=      5-min Rain = 0
KAI1 090348Z 25016KT 13/04 A2981 RMK A01 T01290038  RH  054%=      5-min Rain = 0
KAI1 090349Z 25016KT 13/04 A298 RMK A01 T01290038  RH  054%=      5-min Rain = 0
KAI1 090350Z 25015KT 13/04 A298 RMK A01 T01290038  RH  054%=      5-min Rain = 0
KAI1 090351Z 25015KT 13/04 A298 RMK A01 T01280038  RH  054%=      5-min Rain = 0
KAI1 090352Z 25016KT 13/04 A298 RMK A01 T01280038  RH  054%=      5-min Rain = 0
KAI1 090353Z 26016KT 13/04 A298 RMK A01 T01280037  RH  054%=      5-min Rain = 0
KAI1 090354Z 26016KT 13/04 A298 RMK A01 T01280037  RH  054%=      5-min Rain = 0
KAI1 090355Z 25016KT 13/04 A298 RMK A01 T01270037  RH  054%=      5-min Rain = 0
KAI1 090356Z 26017KT 13/04 A298 RMK A01 T01270037  RH  054%=      5-min Rain = 0
KAI1 090357Z 25017KT 13/04 A298 RMK A01 T01280037  RH  054%=      5-min Rain = 0
KAI1 090358Z 26018KT 13/04 A298 RMK A01 T01270037  RH  054%=      5-min Rain = 0
KAI1 090359Z 25018KT 13/04 A298 RMK A01 T01280036  RH  054%=      5-min Rain = 0
KAI1 090400Z 25017KT 13/04 A298 RMK A01 T01280037  RH  054%=      5-min Rain = 0
KAI1 090401Z 25017KT 13/04 A298 RMK A01 T01280037  RH  054%=      5-min Rain = 0
KAI1 090402Z 25016KT 13/04 A298 RMK A01 T01270037  RH  054%=      5-min Rain = 0
KAI1 090403Z 25016KT 13/04 A298 RMK A01 T01260037  RH  054%=      5-min Rain = 0
KAI1 090404Z 25016KT 13/04 A298 RMK A01 T01250036  RH  055%=      5-min Rain = 0
KAI1 090405Z 25015KT 13/04 A298 RMK A01 T01250037  RH  055%=      5-min Rain = 0
KAI1 090406Z 25015KT 13/04 A298 RMK A01 T01250037  RH  055%=      5-min Rain = 0
KAI1 090407Z 25014KT 12/04 A298 RMK A01 T01240036  RH  055%=      5-min Rain = 0
KAI1 090408Z 25015KT 12/04 A298 RMK A01 T01240036  RH  055%=      5-min Rain = 0
KAI1 090409Z 25014KT 12/04 A298 RMK A01 T01230036  RH  055%=      5-min Rain = 0
KAI1 090410Z 25013KT 12/04 A298 RMK A01 T01230036  RH  055%=      5-min Rain = 0
KAI1 090411Z 25013KT 12/04 A298 RMK A01 T01210035  RH  056%=      5-min Rain = 0
KAI1 090412Z 25013KT 12/04 A298 RMK A01 T01210035  RH  056%=      5-min Rain = 0
KAI1 090413Z 25013KT 12/04 A298 RMK A01 T01200035  RH  056%=      5-min Rain = 0
KAI1 090414Z 25013KT 12/04 A298 RMK A01 T01200036  RH  056%=      5-min Rain = 0
KAI1 090415Z 25014KT 12/04 A298 RMK A01 T01200036  RH  056%=      5-min Rain = 0
KAI1 090416Z 25013KT 12/04 A298 RMK A01 T01190036  RH  057%=      5-min Rain = 0
KAI1 090417Z 25013KT 12/04 A2981 RMK A01 T01190036  RH  057%=      5-min Rain = 0
KAI1 090418Z 25012KT 12/04 A2981 RMK A01 T01170036  RH  057%=      5-min Rain = 0
KAI1 090419Z 25012KT 12/04 A2981 RMK A01 T01170036  RH  058%=      5-min Rain = 0
KAI1 090420Z 25012KT 12/04 A2981 RMK A01 T01160036  RH  058%=      5-min Rain = 0
KAI1 090421Z 25014KT 12/04 A2981 RMK A01 T01150036  RH  058%=      5-min Rain = 0
KAI1 090422Z 25013KT 12/04 A2981 RMK A01 T01150036  RH  058%=      5-min Rain = 0
KAI1 090423Z 25013KT 12/04 A2981 RMK A01 T01150036  RH  058%=      5-min Rain = 0
KAI1 090424Z 25014KT 12/04 A2981 RMK A01 T01150036  RH  059%=      5-min Rain = 0
KAI1 090425Z 25012KT 11/04 A2981 RMK A01 T01140036  RH  059%=      5-min Rain = 0
KAI1 090426Z 25012KT 11/04 A2981 RMK A01 T01140037  RH  059%=      5-min Rain = 0
KAI1 090427Z 25013KT 11/04 A298 RMK A01 T01130037  RH  059%=      5-min Rain = 0
KAI1 090428Z 25013KT 11/04 A298 RMK A01 T01130037  RH  059%=      5-min Rain = 0
KAI1 090429Z 25013KT 11/04 A2981 RMK A01 T01130037  RH  060%=      5-min Rain = 0
KAI1 090430Z 25013KT 11/04 A2981 RMK A01 T01120037  RH  060%=      5-min Rain = 0
KAI1 090431Z 25013KT 11/04 A2981 RMK A01 T01120037  RH  060%=      5-min Rain = 0
KAI1 090432Z 25014KT 11/04 A298 RMK A01 T01110037  RH  060%=      5-min Rain = 0
KAI1 090433Z 25012KT 11/04 A298 RMK A01 T01110037  RH  060%=      5-min Rain = 0
KAI1 090434Z 25012KT 11/04 A298 RMK A01 T01110037  RH  060%=      5-min Rain = 0
KAI1 090435Z 25014KT 11/04 A298 RMK A01 T01110037  RH  060%=      5-min Rain = 0
KAI1 090436Z 25013KT 11/04 A298 RMK A01 T01110037  RH  061%=      5-min Rain = 0
KAI1 090437Z 25013KT 11/04 A298 RMK A01 T01110038  RH  061%=      5-min Rain = 0
KAI1 090438Z 26012KT 11/04 A2981 RMK A01 T01100038  RH  061%=      5-min Rain = 0
KAI1 090439Z 25013KT 11/04 A2981 RMK A01 T01100037  RH  061%=      5-min Rain = 0
KAI1 090440Z 25013KT 11/04 A2981 RMK A01 T01090037  RH  061%=      5-min Rain = 0
KAI1 090441Z 25013KT 11/04 A2981 RMK A01 T01090037  RH  061%=      5-min Rain = 0
KAI1 090442Z 25013KT 11/04 A2981 RMK A01 T01090037  RH  061%=      5-min Rain = 0
KAI1 090443Z 25013KT 11/04 A2981 RMK A01 T01100037  RH  061%=      5-min Rain = 0
KAI1 090444Z 25013KT 11/04 A2981 RMK A01 T01090037  RH  061%=      5-min Rain = 0
KAI1 090445Z 25014KT 11/04 A2981 RMK A01 T01100038  RH  061%=      5-min Rain = 0
KAI1 090446Z 25013KT 11/04 A2981 RMK A01 T01100038  RH  061%=      5-min Rain = 0
KAI1 090447Z 25014KT 11/04 A2981 RMK A01 T01090038  RH  061%=      5-min Rain = 0
KAI1 090448Z 25013KT 11/04 A2981 RMK A01 T01090038  RH  062%=      5-min Rain = 0
KAI1 090449Z 25015KT 11/04 A2981 RMK A01 T01090038  RH  062%=      5-min Rain = 0
KAI1 090450Z 25014KT 11/04 A2981 RMK A01 T01090039  RH  062%=      5-min Rain = 0
KAI1 090451Z 25014KT 11/04 A2981 RMK A01 T01090038  RH  062%=      5-min Rain = 0
KAI1 090452Z 25014KT 11/04 A2981 RMK A01 T01090038  RH  062%=      5-min Rain = 0
KAI1 090453Z 25015KT 11/04 A2981 RMK A01 T01090038  RH  062%=      5-min Rain = 0
KAI1 090454Z 25016KT 11/04 A2981 RMK A01 T01100039  RH  062%=      5-min Rain = 0
KAI1 090455Z 25016KT 11/04 A2981 RMK A01 T01110039  RH  062%=      5-min Rain = 0
KAI1 090456Z 25014KT 11/04 A2981 RMK A01 T01110039  RH  061%=      5-min Rain = 0
KAI1 090457Z 25016KT 11/04 A298 RMK A01 T01110039  RH  061%=      5-min Rain = 0
KAI1 090458Z 25014KT 11/04 A298 RMK A01 T01100039  RH  062%=      5-min Rain = 0
KAI1 090459Z 25014KT 11/04 A298 RMK A01 T01100039  RH  062%=      5-min Rain = 0
KAI1 090500Z 25016KT 11/04 A298 RMK A01 T01100040  RH  062%=      5-min Rain = 0
KAI1 090501Z 25015KT 11/04 A298 RMK A01 T01100040  RH  062%=      5-min Rain = 0
KAI1 090502Z 25015KT 11/04 A298 RMK A01 T01110040  RH  062%=      5-min Rain = 0
KAI1 090503Z 25016KT 11/04 A298 RMK A01 T01110040  RH  062%=      5-min Rain = 0
KAI1 090504Z 25016G22KT 11/04 A298 RMK A01 T01100040  RH  062%=      5-min Rain = 0
KAI1 090505Z 25018KT 11/04 A298 RMK A01 T01110040  RH  062%=      5-min Rain = 0
KAI1 090506Z 25016KT 11/04 A298 RMK A01 T01110040  RH  062%=      5-min Rain = 0
KAI1 090507Z 25017KT 11/04 A298 RMK A01 T01110040  RH  062%=      5-min Rain = 0
KAI1 090508Z 25017KT 11/04 A298 RMK A01 T01110040  RH  062%=      5-min Rain = 0
KAI1 090509Z 25017KT 11/04 A298 RMK A01 T01120040  RH  061%=      5-min Rain = 0
KAI1 090510Z 25017KT 11/04 A298 RMK A01 T01110040  RH  061%=      5-min Rain = 0
KAI1 090511Z 25017KT 11/04 A298 RMK A01 T01110040  RH  062%=      5-min Rain = 0
KAI1 090512Z 25017KT 11/04 A298 RMK A01 T01110040  RH  061%=      5-min Rain = 0
KAI1 090513Z 25016KT 11/04 A298 RMK A01 T01110039  RH  061%=      5-min Rain = 0
KAI1 090514Z 25016KT 11/04 A298 RMK A01 T01110040  RH  062%=      5-min Rain = 0
KAI1 090515Z 25015KT 11/04 A298 RMK A01 T01100039  RH  062%=      5-min Rain = 0
KAI1 090516Z 25015KT 11/04 A298 RMK A01 T01090039  RH  062%=      5-min Rain = 0
KAI1 090517Z 25015KT 11/04 A298 RMK A01 T01090040  RH  062%=      5-min Rain = 0
KAI1 090518Z 25016KT 11/04 A298 RMK A01 T01080039  RH  062%=      5-min Rain = 0
KAI1 090519Z 25015KT 11/04 A298 RMK A01 T01080040  RH  062%=      5-min Rain = 0
KAI1 090520Z 25015KT 11/04 A298 RMK A01 T01080039  RH  062%=      5-min Rain = 0
KAI1 090521Z 25016KT 11/04 A298 RMK A01 T01070039  RH  063%=      5-min Rain = 0
KAI1 090522Z 25015KT 11/04 A298 RMK A01 T01070039  RH  063%=      5-min Rain = 0
KAI1 090523Z 25016KT 11/04 A298 RMK A01 T01080039  RH  063%=      5-min Rain = 0
KAI1 090524Z 24016KT 11/04 A298 RMK A01 T01080039  RH  062%=      5-min Rain = 0
KAI1 090525Z 25016KT 11/04 A298 RMK A01 T01080039  RH  062%=      5-min Rain = 0
KAI1 090526Z 25016KT 11/04 A298 RMK A01 T01080039  RH  062%=      5-min Rain = 0
KAI1 090527Z 25015KT 11/04 A298 RMK A01 T01080039  RH  062%=      5-min Rain = 0
KAI1 090528Z 25017KT 11/04 A2979 RMK A01 T01070038  RH  062%=      5-min Rain = 0
KAI1 090529Z 25017KT 11/04 A2979 RMK A01 T01080038  RH  062%=      5-min Rain = 0
KAI1 090530Z 25017KT 11/04 A2979 RMK A01 T01080038  RH  062%=      5-min Rain = 0
KAI1 090531Z 25015KT 11/04 A298 RMK A01 T01080038  RH  062%=      5-min Rain = 0
KAI1 090532Z 25016KT 11/04 A298 RMK A01 T01080038  RH  062%=      5-min Rain = 0
KAI1 090533Z 25017KT 11/04 A298 RMK A01 T01080038  RH  062%=      5-min Rain = 0
KAI1 090534Z 25017KT 11/04 A298 RMK A01 T01090037  RH  061%=      5-min Rain = 0
KAI1 090535Z 25016KT 11/04 A298 RMK A01 T01090037  RH  061%=      5-min Rain = 0
KAI1 090536Z 25015KT 11/04 A298 RMK A01 T01100037  RH  061%=      5-min Rain = 0
KAI1 090537Z 25015KT 11/04 A298 RMK A01 T01100038  RH  061%=      5-min Rain = 0
KAI1 090538Z 25016KT 11/04 A298 RMK A01 T01100037  RH  061%=      5-min Rain = 0
KAI1 090539Z 25014KT 11/04 A2981 RMK A01 T01090037  RH  061%=      5-min Rain = 0
KAI1 090540Z 25015KT 11/04 A2981 RMK A01 T01090036  RH  061%=      5-min Rain = 0
KAI1 090541Z 25016KT 11/04 A2981 RMK A01 T01080036  RH  061%=      5-min Rain = 0
KAI1 090542Z 25015KT 11/04 A2981 RMK A01 T01080036  RH  061%=      5-min Rain = 0
KAI1 090543Z 25015KT 11/04 A2981 RMK A01 T01080036  RH  061%=      5-min Rain = 0
KAI1 090544Z 24014KT 11/04 A2981 RMK A01 T01070036  RH  061%=      5-min Rain = 0
KAI1 090545Z 24013KT 11/04 A2981 RMK A01 T01070036  RH  062%=      5-min Rain = 0
KAI1 090546Z 24012KT 11/04 A2981 RMK A01 T01060036  RH  062%=      5-min Rain = 0
KAI1 090547Z 24012KT 11/04 A2981 RMK A01 T01050035  RH  062%=      5-min Rain = 0
KAI1 090548Z 24011KT 10/04 A2981 RMK A01 T01040035  RH  063%=      5-min Rain = 0
KAI1 090549Z 24011KT 10/04 A2981 RMK A01 T01020035  RH  063%=      5-min Rain = 0
KAI1 090550Z 23011KT 10/04 A2981 RMK A01 T01010035  RH  064%=      5-min Rain = 0
KAI1 090551Z 23011KT 10/04 A2981 RMK A01 T00990035  RH  064%=      5-min Rain = 0
KAI1 090552Z 24011KT 10/03 A2981 RMK A01 T00980034  RH  065%=      5-min Rain = 0
KAI1 090553Z 24011KT 10/04 A2981 RMK A01 T00970035  RH  065%=      5-min Rain = 0
KAI1 090554Z 24011KT 10/04 A2981 RMK A01 T00960035  RH  066%=      5-min Rain = 0
KAI1 090555Z 24012KT 10/04 A2981 RMK A01 T00950035  RH  066%=      5-min Rain = 0
KAI1 090556Z 23012KT 10/04 A2981 RMK A01 T00950035  RH  066%=      5-min Rain = 0
KAI1 090557Z 24012KT 09/04 A2981 RMK A01 T00940036  RH  067%=      5-min Rain = 0
KAI1 090558Z 24013KT 09/04 A2981 RMK A01 T00940035  RH  067%=      5-min Rain = 0
KAI1 090559Z 24013KT 09/04 A2981 RMK A01 T00930035  RH  067%=      5-min Rain = 0

Page generated in 0.1425 seconds.